<?xml version='1.0' encoding='UTF-8'?><gpx version="1.1" creator="JPX - https://github.com/jenetics/jpx" xmlns="http://www.topografix.com/GPX/1/1"><trk><trkseg><trkpt lat="43.62136816149053" lon="11.454456016107462"><ele>134.0</ele><time>2026-04-11T21:47:41Z</time></trkpt><trkpt lat="43.621314953810696" lon="11.453962119450878"><ele>134.0</ele><time>2026-04-11T21:47:44Z</time></trkpt><trkpt lat="43.621304365475595" lon="11.45378948736357"><ele>134.25</ele><time>2026-04-11T21:47:45Z</time></trkpt><trkpt lat="43.62129346122651" lon="11.453623475736087"><ele>134.5</ele><time>2026-04-11T21:47:46Z</time></trkpt><trkpt lat="43.62128183514529" lon="11.45345870826532"><ele>134.75</ele><time>2026-04-11T21:47:47Z</time></trkpt><trkpt lat="43.62125457361035" lon="11.453298707353664"><ele>135.0</ele><time>2026-04-11T21:47:48Z</time></trkpt><trkpt lat="43.62124317055197" lon="11.453139744273"><ele>135.0</ele><time>2026-04-11T21:47:49Z</time></trkpt><trkpt lat="43.62123230180822" lon="11.45298370625464"><ele>135.0</ele><time>2026-04-11T21:47:50Z</time></trkpt><trkpt lat="43.62121820069151" lon="11.452831083875264"><ele>135.0</ele><time>2026-04-11T21:47:51Z</time></trkpt><trkpt lat="43.62120304304283" lon="11.45267932320458"><ele>135.0</ele><time>2026-04-11T21:47:52Z</time></trkpt><trkpt lat="43.621187621541495" lon="11.452522839284535"><ele>135.0</ele><time>2026-04-11T21:47:53Z</time></trkpt><trkpt lat="43.6211790147069" lon="11.452363127280234"><ele>135.0</ele><time>2026-04-11T21:47:54Z</time></trkpt><trkpt lat="43.62117176026895" lon="11.452194232077959"><ele>135.0</ele><time>2026-04-11T21:47:55Z</time></trkpt><trkpt lat="43.621173228693436" lon="11.452028329003022"><ele>135.0</ele><time>2026-04-11T21:47:56Z</time></trkpt><trkpt lat="43.62118043080047" lon="11.451861569965576"><ele>136.75</ele><time>2026-04-11T21:47:57Z</time></trkpt><trkpt lat="43.621187065364644" lon="11.451692864016668"><ele>138.5</ele><time>2026-04-11T21:47:58Z</time></trkpt><trkpt lat="43.62118481132971" lon="11.4515286966304"><ele>140.25</ele><time>2026-04-11T21:47:59Z</time></trkpt><trkpt lat="43.62117855271506" lon="11.451371696803937"><ele>142.0</ele><time>2026-04-11T21:48:00Z</time></trkpt><trkpt lat="43.62116381794624" lon="11.451224173816836"><ele>141.79999999999998</ele><time>2026-04-11T21:48:01Z</time></trkpt><trkpt lat="43.621135008724586" lon="11.451091374541507"><ele>141.6</ele><time>2026-04-11T21:48:02Z</time></trkpt><trkpt lat="43.6210840834708" lon="11.450974731434169"><ele>141.39999999999998</ele><time>2026-04-11T21:48:03Z</time></trkpt><trkpt lat="43.62101835802268" lon="11.450871212523618"><ele>141.2</ele><time>2026-04-11T21:48:04Z</time></trkpt><trkpt lat="43.62093941786575" lon="11.450761290664696"><ele>141.0</ele><time>2026-04-11T21:48:05Z</time></trkpt><trkpt lat="43.62087920363248" lon="11.450652478654773"><ele>141.0</ele><time>2026-04-11T21:48:06Z</time></trkpt><trkpt lat="43.6208510786429" lon="11.450549592604474"><ele>141.0</ele><time>2026-04-11T21:48:07Z</time></trkpt><trkpt lat="43.620810549382334" lon="11.450463749138088"><ele>141.0</ele><time>2026-04-11T21:48:08Z</time></trkpt><trkpt lat="43.62081520703762" lon="11.450367363375904"><ele>141.0</ele><time>2026-04-11T21:48:09Z</time></trkpt><trkpt lat="43.62085186930312" lon="11.450254294401443"><ele>141.0</ele><time>2026-04-11T21:48:10Z</time></trkpt><trkpt lat="43.62085448091084" lon="11.45013402826423"><ele>141.0</ele><time>2026-04-11T21:48:11Z</time></trkpt><trkpt lat="43.62086630615719" lon="11.450015783783757"><ele>141.66666666666666</ele><time>2026-04-11T21:48:12Z</time></trkpt><trkpt lat="43.620881080542595" lon="11.449896844297621"><ele>142.33333333333334</ele><time>2026-04-11T21:48:13Z</time></trkpt><trkpt lat="43.62086624120464" lon="11.449776714445923"><ele>143.0</ele><time>2026-04-11T21:48:14Z</time></trkpt><trkpt lat="43.620847065934385" lon="11.449662727419227"><ele>143.66666666666669</ele><time>2026-04-11T21:48:15Z</time></trkpt><trkpt lat="43.62082612453271" lon="11.44953949666668"><ele>144.33333333333334</ele><time>2026-04-11T21:48:16Z</time></trkpt><trkpt lat="43.62080461273339" lon="11.4494104600035"><ele>145.0</ele><time>2026-04-11T21:48:17Z</time></trkpt><trkpt lat="43.62078667347299" lon="11.449280963530315"><ele>145.33333333333334</ele><time>2026-04-11T21:48:18Z</time></trkpt><trkpt lat="43.620782450555154" lon="11.44918767626003"><ele>145.66666666666669</ele><time>2026-04-11T21:48:19Z</time></trkpt><trkpt lat="43.62087544581194" lon="11.44911109578276"><ele>146.0</ele><time>2026-04-11T21:48:21Z</time></trkpt><trkpt lat="43.62094929710432" lon="11.449069529332133"><ele>146.33333333333334</ele><time>2026-04-11T21:48:22Z</time></trkpt><trkpt lat="43.62102186155926" lon="11.448994524100522"><ele>146.66666666666666</ele><time>2026-04-11T21:48:23Z</time></trkpt><trkpt lat="43.62110159452893" lon="11.448917849634677"><ele>147.0</ele><time>2026-04-11T21:48:24Z</time></trkpt><trkpt lat="43.621171296557144" lon="11.44883440047808"><ele>148.79999999999998</ele><time>2026-04-11T21:48:25Z</time></trkpt><trkpt lat="43.62122935439829" lon="11.448746176693716"><ele>150.6</ele><time>2026-04-11T21:48:26Z</time></trkpt><trkpt lat="43.62125662318741" lon="11.44862361309815"><ele>152.39999999999998</ele><time>2026-04-11T21:48:27Z</time></trkpt><trkpt lat="43.62127240905386" lon="11.448478270277441"><ele>154.2</ele><time>2026-04-11T21:48:28Z</time></trkpt><trkpt lat="43.621313176599585" lon="11.448350250583976"><ele>156.0</ele><time>2026-04-11T21:48:29Z</time></trkpt><trkpt lat="43.62134594238203" lon="11.448211806550715"><ele>156.0</ele><time>2026-04-11T21:48:29.999Z</time></trkpt><trkpt lat="43.62136234961776" lon="11.44807130718605"><ele>156.0</ele><time>2026-04-11T21:48:30.999Z</time></trkpt><trkpt lat="43.62139466826812" lon="11.447945460325048"><ele>156.0</ele><time>2026-04-11T21:48:31.999Z</time></trkpt><trkpt lat="43.621444759135684" lon="11.447841108891621"><ele>156.0</ele><time>2026-04-11T21:48:32.999Z</time></trkpt><trkpt lat="43.62150020744899" lon="11.447762461562986"><ele>156.0</ele><time>2026-04-11T21:48:33.999Z</time></trkpt><trkpt lat="43.621579908314075" lon="11.447722576252094"><ele>157.5</ele><time>2026-04-11T21:48:34.999Z</time></trkpt><trkpt lat="43.621654414545326" lon="11.447646967058207"><ele>159.0</ele><time>2026-04-11T21:48:35.999Z</time></trkpt><trkpt lat="43.62168012789867" lon="11.447528714375137"><ele>160.5</ele><time>2026-04-11T21:48:36.999Z</time></trkpt><trkpt lat="43.62168355050233" lon="11.447413768413215"><ele>162.0</ele><time>2026-04-11T21:48:37.999Z</time></trkpt><trkpt lat="43.621665027647104" lon="11.447315648778813"><ele>163.5</ele><time>2026-04-11T21:48:38.999Z</time></trkpt><trkpt lat="43.621600676496854" lon="11.447244352409461"><ele>165.0</ele><time>2026-04-11T21:48:39.999Z</time></trkpt><trkpt lat="43.62147725786691" lon="11.447279499536801"><ele>165.0</ele><time>2026-04-11T21:48:40.999Z</time></trkpt><trkpt lat="43.621376025039616" lon="11.447286084056609"><ele>165.0</ele><time>2026-04-11T21:48:41.999Z</time></trkpt><trkpt lat="43.62127827091441" lon="11.447289317917239"><ele>165.0</ele><time>2026-04-11T21:48:42.999Z</time></trkpt><trkpt lat="43.62119219161373" lon="11.44724543116273"><ele>165.0</ele><time>2026-04-11T21:48:43.999Z</time></trkpt><trkpt lat="43.62110900498103" lon="11.447183593881924"><ele>165.0</ele><time>2026-04-11T21:48:44.999Z</time></trkpt><trkpt lat="43.62103756913564" lon="11.447094563577814"><ele>167.8</ele><time>2026-04-11T21:48:45.999Z</time></trkpt><trkpt lat="43.62095755201839" lon="11.447004127568508"><ele>170.6</ele><time>2026-04-11T21:48:46.999Z</time></trkpt><trkpt lat="43.620875730153855" lon="11.446915546575509"><ele>173.39999999999998</ele><time>2026-04-11T21:48:47.999Z</time></trkpt><trkpt lat="43.62078953334075" lon="11.44683086998394"><ele>176.2</ele><time>2026-04-11T21:48:48.999Z</time></trkpt><trkpt lat="43.62071017775324" lon="11.446751294199608"><ele>179.0</ele><time>2026-04-11T21:48:49.999Z</time></trkpt><trkpt lat="43.62064595795933" lon="11.446670896619263"><ele>179.0</ele><time>2026-04-11T21:48:50.999Z</time></trkpt><trkpt lat="43.62059417766179" lon="11.446586593008606"><ele>179.0</ele><time>2026-04-11T21:48:51.999Z</time></trkpt><trkpt lat="43.62059392470038" lon="11.446483017135263"><ele>179.0</ele><time>2026-04-11T21:48:52.999Z</time></trkpt><trkpt lat="43.62059343598177" lon="11.446358698852887"><ele>179.0</ele><time>2026-04-11T21:48:53.999Z</time></trkpt><trkpt lat="43.62059581465551" lon="11.446226514354546"><ele>179.0</ele><time>2026-04-11T21:48:54.999Z</time></trkpt><trkpt lat="43.620601488661876" lon="11.446091436520371"><ele>179.0</ele><time>2026-04-11T21:48:55.999Z</time></trkpt><trkpt lat="43.620606462350395" lon="11.445951066625533"><ele>181.2</ele><time>2026-04-11T21:48:56.999Z</time></trkpt><trkpt lat="43.62060996171123" lon="11.445804686420528"><ele>183.39999999999998</ele><time>2026-04-11T21:48:57.999Z</time></trkpt><trkpt lat="43.62061482551863" lon="11.445656565793382"><ele>185.6</ele><time>2026-04-11T21:48:58.999Z</time></trkpt><trkpt lat="43.620620215064264" lon="11.445502324675353"><ele>187.8</ele><time>2026-04-11T21:48:59.999Z</time></trkpt><trkpt lat="43.6206050893644" lon="11.44535057920437"><ele>190.0</ele><time>2026-04-11T21:49:00.999Z</time></trkpt><trkpt lat="43.62059878987169" lon="11.445196625746329"><ele>192.75</ele><time>2026-04-11T21:49:01.999Z</time></trkpt><trkpt lat="43.62058914950779" lon="11.445040909923225"><ele>195.5</ele><time>2026-04-11T21:49:02.999Z</time></trkpt><trkpt lat="43.620563127198444" lon="11.444883665348465"><ele>198.25</ele><time>2026-04-11T21:49:03.999Z</time></trkpt><trkpt lat="43.62054851549723" lon="11.444727219935139"><ele>201.0</ele><time>2026-04-11T21:49:04.999Z</time></trkpt><trkpt lat="43.62053869704859" lon="11.444567969285467"><ele>202.8</ele><time>2026-04-11T21:49:05.999Z</time></trkpt><trkpt lat="43.62053737124206" lon="11.444406469831364"><ele>204.60000000000002</ele><time>2026-04-11T21:49:06.999Z</time></trkpt><trkpt lat="43.62052297464936" lon="11.444235284935779"><ele>206.4</ele><time>2026-04-11T21:49:07.999Z</time></trkpt><trkpt lat="43.620491123780624" lon="11.444080725264547"><ele>208.2</ele><time>2026-04-11T21:49:08.999Z</time></trkpt><trkpt lat="43.620434485216606" lon="11.443986633567883"><ele>210.0</ele><time>2026-04-11T21:49:09.999Z</time></trkpt><trkpt lat="43.62034445779886" lon="11.443956000426864"><ele>210.4</ele><time>2026-04-11T21:49:10.999Z</time></trkpt><trkpt lat="43.62024823400668" lon="11.443891777429219"><ele>210.8</ele><time>2026-04-11T21:49:11.999Z</time></trkpt><trkpt lat="43.620138503118966" lon="11.443847266695334"><ele>211.2</ele><time>2026-04-11T21:49:12.999Z</time></trkpt><trkpt lat="43.620024165210346" lon="11.443840662798497"><ele>211.6</ele><time>2026-04-11T21:49:13.999Z</time></trkpt><trkpt lat="43.619917569054" lon="11.443836499636596"><ele>212.0</ele><time>2026-04-11T21:49:14.999Z</time></trkpt><trkpt lat="43.61982063976428" lon="11.443840583421936"><ele>212.00000000000003</ele><time>2026-04-11T21:49:15.999Z</time></trkpt><trkpt lat="43.61972826783065" lon="11.443851403847034"><ele>212.0</ele><time>2026-04-11T21:49:16.999Z</time></trkpt><trkpt lat="43.61965405449825" lon="11.44380048046765"><ele>212.0</ele><time>2026-04-11T21:49:17.999Z</time></trkpt><trkpt lat="43.61960551477309" lon="11.443709224292249"><ele>212.0</ele><time>2026-04-11T21:49:18.999Z</time></trkpt><trkpt lat="43.61960310021951" lon="11.443581593319403"><ele>212.00000000000003</ele><time>2026-04-11T21:49:19.999Z</time></trkpt><trkpt lat="43.61956547797403" lon="11.44346071438592"><ele>212.0</ele><time>2026-04-11T21:49:20.999Z</time></trkpt><trkpt lat="43.61952682675464" lon="11.443335169294203"><ele>214.2</ele><time>2026-04-11T21:49:21.999Z</time></trkpt><trkpt lat="43.619486823785515" lon="11.443204074427715"><ele>216.39999999999998</ele><time>2026-04-11T21:49:22.999Z</time></trkpt><trkpt lat="43.619447671100076" lon="11.443075766701522"><ele>218.60000000000002</ele><time>2026-04-11T21:49:23.999Z</time></trkpt><trkpt lat="43.6194071065973" lon="11.442948648894742"><ele>220.8</ele><time>2026-04-11T21:49:24.999Z</time></trkpt><trkpt lat="43.619370227175004" lon="11.442825708988561"><ele>223.0</ele><time>2026-04-11T21:49:25.999Z</time></trkpt><trkpt lat="43.619342852559164" lon="11.442707974020722"><ele>225.60000000000002</ele><time>2026-04-11T21:49:26.999Z</time></trkpt><trkpt lat="43.61933703282223" lon="11.442592560100621"><ele>228.20000000000002</ele><time>2026-04-11T21:49:27.999Z</time></trkpt><trkpt lat="43.61934935630316" lon="11.44247020768723"><ele>230.8</ele><time>2026-04-11T21:49:29Z</time></trkpt><trkpt lat="43.61937179044431" lon="11.442331328181616"><ele>233.4</ele><time>2026-04-11T21:49:30Z</time></trkpt><trkpt lat="43.61938666781114" lon="11.442179736134204"><ele>236.0</ele><time>2026-04-11T21:49:31Z</time></trkpt><trkpt lat="43.61942188755664" lon="11.442019252225656"><ele>238.75</ele><time>2026-04-11T21:49:32Z</time></trkpt><trkpt lat="43.61947805731062" lon="11.4418644530596"><ele>241.5</ele><time>2026-04-11T21:49:33Z</time></trkpt><trkpt lat="43.619529995373206" lon="11.441702462335622"><ele>244.25</ele><time>2026-04-11T21:49:34Z</time></trkpt><trkpt lat="43.619605905011944" lon="11.441555319407502"><ele>247.0</ele><time>2026-04-11T21:49:35Z</time></trkpt><trkpt lat="43.6196635808618" lon="11.44140792524124"><ele>248.8</ele><time>2026-04-11T21:49:36Z</time></trkpt><trkpt lat="43.61968767509618" lon="11.441275681732263"><ele>250.6</ele><time>2026-04-11T21:49:37Z</time></trkpt><trkpt lat="43.619651159495284" lon="11.441128498776855"><ele>252.40000000000003</ele><time>2026-04-11T21:49:38Z</time></trkpt><trkpt lat="43.61961416924805" lon="11.44097441862838"><ele>254.20000000000002</ele><time>2026-04-11T21:49:39Z</time></trkpt><trkpt lat="43.61959171472677" lon="11.440813943977783"><ele>256.0</ele><time>2026-04-11T21:49:40Z</time></trkpt><trkpt lat="43.6195683698342" lon="11.440656063434636"><ele>256.0</ele><time>2026-04-11T21:49:41Z</time></trkpt><trkpt lat="43.619519936874816" lon="11.440526724461524"><ele>256.0</ele><time>2026-04-11T21:49:42Z</time></trkpt><trkpt lat="43.619438387178455" lon="11.440425667307478"><ele>256.0</ele><time>2026-04-11T21:49:43Z</time></trkpt><trkpt lat="43.61933888617312" lon="11.440362520515622"><ele>256.0</ele><time>2026-04-11T21:49:44Z</time></trkpt><trkpt lat="43.619255069276576" lon="11.440277020750738"><ele>256.0</ele><time>2026-04-11T21:49:45Z</time></trkpt><trkpt lat="43.61918449148033" lon="11.440185350739348"><ele>257.2</ele><time>2026-04-11T21:49:46Z</time></trkpt><trkpt lat="43.61912733912822" lon="11.44008728133446"><ele>258.40000000000003</ele><time>2026-04-11T21:49:47Z</time></trkpt><trkpt lat="43.61907291622808" lon="11.4399750628565"><ele>259.6</ele><time>2026-04-11T21:49:48Z</time></trkpt><trkpt lat="43.619016687343716" lon="11.439860151360284"><ele>260.8</ele><time>2026-04-11T21:49:49Z</time></trkpt><trkpt lat="43.618944841484506" lon="11.439754389051712"><ele>262.0</ele><time>2026-04-11T21:49:50Z</time></trkpt><trkpt lat="43.618883420014896" lon="11.439638660970385"><ele>262.2</ele><time>2026-04-11T21:49:51Z</time></trkpt><trkpt lat="43.61882343688113" lon="11.439514861325835"><ele>262.4</ele><time>2026-04-11T21:49:52Z</time></trkpt><trkpt lat="43.618760224881534" lon="11.439395387217491"><ele>262.6</ele><time>2026-04-11T21:49:53Z</time></trkpt><trkpt lat="43.618700018214405" lon="11.439280546286314"><ele>262.8</ele><time>2026-04-11T21:49:54Z</time></trkpt><trkpt lat="43.61863991868309" lon="11.439175396443115"><ele>263.0</ele><time>2026-04-11T21:49:55Z</time></trkpt><trkpt lat="43.6185848697204" lon="11.439066258174975"><ele>263.4</ele><time>2026-04-11T21:49:56Z</time></trkpt><trkpt lat="43.618547467175446" lon="11.438943996542655"><ele>263.8</ele><time>2026-04-11T21:49:57Z</time></trkpt><trkpt lat="43.6184934294435" lon="11.438835376340366"><ele>264.2</ele><time>2026-04-11T21:49:58Z</time></trkpt><trkpt lat="43.61848405491058" lon="11.438701283485305"><ele>264.6</ele><time>2026-04-11T21:49:59Z</time></trkpt><trkpt lat="43.61847770244102" lon="11.4385763751935"><ele>265.0</ele><time>2026-04-11T21:50:00Z</time></trkpt><trkpt lat="43.61847956418131" lon="11.438446430339278"><ele>265.4</ele><time>2026-04-11T21:50:01Z</time></trkpt><trkpt lat="43.61847028919594" lon="11.438315537413386"><ele>265.8</ele><time>2026-04-11T21:50:02Z</time></trkpt><trkpt lat="43.618469012658444" lon="11.438179784904841"><ele>266.2</ele><time>2026-04-11T21:50:03Z</time></trkpt><trkpt lat="43.61847738431791" lon="11.438055987163109"><ele>266.6</ele><time>2026-04-11T21:50:04Z</time></trkpt><trkpt lat="43.61847549920465" lon="11.43793455939947"><ele>267.0</ele><time>2026-04-11T21:50:05Z</time></trkpt><trkpt lat="43.618478014210346" lon="11.437813733224411"><ele>267.0</ele><time>2026-04-11T21:50:06Z</time></trkpt><trkpt lat="43.61848740307732" lon="11.437683737756311"><ele>267.0</ele><time>2026-04-11T21:50:07Z</time></trkpt><trkpt lat="43.61849273357264" lon="11.437567525262445"><ele>267.0</ele><time>2026-04-11T21:50:08Z</time></trkpt><trkpt lat="43.61849823716475" lon="11.437478195928424"><ele>267.0</ele><time>2026-04-11T21:50:09Z</time></trkpt><trkpt lat="43.618501542443596" lon="11.437312543881662"><ele>267.0</ele><time>2026-04-11T21:50:11Z</time></trkpt><trkpt lat="43.61851147906881" lon="11.437225034697313"><ele>267.0</ele><time>2026-04-11T21:50:13Z</time></trkpt><trkpt lat="43.61837082932989" lon="11.437214575228381"><ele>267.0</ele><time>2026-04-11T21:50:15Z</time></trkpt><trkpt lat="43.61829535373738" lon="11.437158943605759"><ele>267.0</ele><time>2026-04-11T21:50:16Z</time></trkpt><trkpt lat="43.6182080191472" lon="11.43707634304388"><ele>267.0</ele><time>2026-04-11T21:50:17Z</time></trkpt><trkpt lat="43.61813136115219" lon="11.437004089555085"><ele>267.0</ele><time>2026-04-11T21:50:18Z</time></trkpt><trkpt lat="43.61807757598733" lon="11.43694841242996"><ele>267.0</ele><time>2026-04-11T21:50:19Z</time></trkpt><trkpt lat="43.61798753229496" lon="11.436831748038406"><ele>267.4</ele><time>2026-04-11T21:50:21Z</time></trkpt><trkpt lat="43.61788211660217" lon="11.436691786241028"><ele>267.79999999999995</ele><time>2026-04-11T21:50:22.999Z</time></trkpt><trkpt lat="43.617819948404524" lon="11.436612812471811"><ele>268.2</ele><time>2026-04-11T21:50:23.999Z</time></trkpt><trkpt lat="43.617764726087835" lon="11.436557114475848"><ele>268.59999999999997</ele><time>2026-04-11T21:50:24.999Z</time></trkpt><trkpt lat="43.61765012931114" lon="11.436474850927347"><ele>269.0</ele><time>2026-04-11T21:50:26.999Z</time></trkpt><trkpt lat="43.61757319589232" lon="11.43637674853092"><ele>267.59999999999997</ele><time>2026-04-11T21:50:28.999Z</time></trkpt><trkpt lat="43.617496817545664" lon="11.436343518953143"><ele>266.2</ele><time>2026-04-11T21:50:30.999Z</time></trkpt><trkpt lat="43.61740928389267" lon="11.436451135330477"><ele>264.79999999999995</ele><time>2026-04-11T21:50:32.999Z</time></trkpt><trkpt lat="43.617338709139396" lon="11.436507923870403"><ele>263.4</ele><time>2026-04-11T21:50:33.999Z</time></trkpt><trkpt lat="43.61725635408103" lon="11.436554730329322"><ele>262.0</ele><time>2026-04-11T21:50:34.999Z</time></trkpt><trkpt lat="43.617170524998095" lon="11.436586036666958"><ele>262.0</ele><time>2026-04-11T21:50:35.999Z</time></trkpt><trkpt lat="43.617087982017914" lon="11.43658674914747"><ele>262.0</ele><time>2026-04-11T21:50:36.999Z</time></trkpt><trkpt lat="43.617006253317804" lon="11.436562074600541"><ele>262.0</ele><time>2026-04-11T21:50:37.999Z</time></trkpt><trkpt lat="43.6169218888212" lon="11.436527429112001"><ele>262.0</ele><time>2026-04-11T21:50:38.999Z</time></trkpt><trkpt lat="43.61684172641819" lon="11.436468534464938"><ele>262.0</ele><time>2026-04-11T21:50:39.999Z</time></trkpt><trkpt lat="43.616755442512215" lon="11.43642826879091"><ele>262.0</ele><time>2026-04-11T21:50:40.999Z</time></trkpt><trkpt lat="43.616670920135846" lon="11.436388196764309"><ele>262.0</ele><time>2026-04-11T21:50:41.999Z</time></trkpt><trkpt lat="43.61658895591043" lon="11.436362990188547"><ele>262.0</ele><time>2026-04-11T21:50:42.999Z</time></trkpt><trkpt lat="43.61650578441499" lon="11.436327058222238"><ele>262.0</ele><time>2026-04-11T21:50:43.999Z</time></trkpt><trkpt lat="43.61641906414629" lon="11.43628551928652"><ele>262.0</ele><time>2026-04-11T21:50:44.999Z</time></trkpt><trkpt lat="43.61633165715789" lon="11.436242562263034"><ele>262.0</ele><time>2026-04-11T21:50:45.999Z</time></trkpt><trkpt lat="43.61624340114224" lon="11.436197037065266"><ele>262.0</ele><time>2026-04-11T21:50:46.999Z</time></trkpt><trkpt lat="43.61616202768045" lon="11.436152557355303"><ele>262.0</ele><time>2026-04-11T21:50:47.999Z</time></trkpt><trkpt lat="43.61608383544844" lon="11.436118326057958"><ele>262.0</ele><time>2026-04-11T21:50:48.999Z</time></trkpt><trkpt lat="43.61600408566635" lon="11.436080673603769"><ele>262.0</ele><time>2026-04-11T21:50:49.999Z</time></trkpt><trkpt lat="43.615925637264404" lon="11.436036250832043"><ele>262.0</ele><time>2026-04-11T21:50:50.999Z</time></trkpt><trkpt lat="43.61584221441876" lon="11.43599078966125"><ele>262.0</ele><time>2026-04-11T21:50:51.999Z</time></trkpt><trkpt lat="43.61575092055897" lon="11.435939987232574"><ele>262.8</ele><time>2026-04-11T21:50:52.999Z</time></trkpt><trkpt lat="43.61566002161708" lon="11.43588753066425"><ele>263.6</ele><time>2026-04-11T21:50:53.999Z</time></trkpt><trkpt lat="43.61557608464526" lon="11.435844547272008"><ele>264.40000000000003</ele><time>2026-04-11T21:50:54.999Z</time></trkpt><trkpt lat="43.61548771549808" lon="11.435809386369144"><ele>265.2</ele><time>2026-04-11T21:50:55.999Z</time></trkpt><trkpt lat="43.6153893389624" lon="11.435787014977656"><ele>266.0</ele><time>2026-04-11T21:50:56.999Z</time></trkpt><trkpt lat="43.61528208680694" lon="11.435783262045298"><ele>267.0</ele><time>2026-04-11T21:50:57.999Z</time></trkpt><trkpt lat="43.615170738152266" lon="11.435782115273582"><ele>268.0</ele><time>2026-04-11T21:50:58.999Z</time></trkpt><trkpt lat="43.615089963622175" lon="11.435755565295503"><ele>269.0</ele><time>2026-04-11T21:50:59.999Z</time></trkpt><trkpt lat="43.61501416484654" lon="11.435712783843336"><ele>270.0</ele><time>2026-04-11T21:51:00.999Z</time></trkpt><trkpt lat="43.61494697677013" lon="11.435643886260234"><ele>271.0</ele><time>2026-04-11T21:51:01.999Z</time></trkpt><trkpt lat="43.614880210422136" lon="11.435548570398636"><ele>272.8</ele><time>2026-04-11T21:51:02.999Z</time></trkpt><trkpt lat="43.61481603759353" lon="11.435445925026015"><ele>274.6</ele><time>2026-04-11T21:51:03.999Z</time></trkpt><trkpt lat="43.61475052985571" lon="11.435330902754316"><ele>276.4</ele><time>2026-04-11T21:51:04.999Z</time></trkpt><trkpt lat="43.614678962878564" lon="11.435207908053902"><ele>278.2</ele><time>2026-04-11T21:51:05.999Z</time></trkpt><trkpt lat="43.614597216001" lon="11.435086473984253"><ele>280.0</ele><time>2026-04-11T21:51:06.999Z</time></trkpt><trkpt lat="43.6144965207256" lon="11.434968221173541"><ele>279.75</ele><time>2026-04-11T21:51:07.999Z</time></trkpt><trkpt lat="43.61437727644442" lon="11.434884266029036"><ele>279.5</ele><time>2026-04-11T21:51:08.999Z</time></trkpt><trkpt lat="43.61424792275338" lon="11.434813740073267"><ele>279.25</ele><time>2026-04-11T21:51:09.999Z</time></trkpt><trkpt lat="43.61412097757332" lon="11.434721929596476"><ele>279.0</ele><time>2026-04-11T21:51:10.999Z</time></trkpt><trkpt lat="43.61399108271351" lon="11.434653119939973"><ele>279.25</ele><time>2026-04-11T21:51:11.999Z</time></trkpt><trkpt lat="43.613863165760435" lon="11.434590927451625"><ele>279.5</ele><time>2026-04-11T21:51:12.999Z</time></trkpt><trkpt lat="43.61374466850391" lon="11.434561562427644"><ele>279.75</ele><time>2026-04-11T21:51:13.999Z</time></trkpt><trkpt lat="43.61362376406317" lon="11.434499466122748"><ele>280.0</ele><time>2026-04-11T21:51:14.999Z</time></trkpt><trkpt lat="43.61350892351483" lon="11.434463428970192"><ele>280.0</ele><time>2026-04-11T21:51:15.999Z</time></trkpt><trkpt lat="43.613403364692346" lon="11.434395701708192"><ele>280.0</ele><time>2026-04-11T21:51:16.999Z</time></trkpt><trkpt lat="43.613294638134114" lon="11.4343445027331"><ele>280.0</ele><time>2026-04-11T21:51:17.999Z</time></trkpt><trkpt lat="43.61318433046295" lon="11.434286292388263"><ele>280.0</ele><time>2026-04-11T21:51:18.999Z</time></trkpt><trkpt lat="43.613077268247984" lon="11.434214472317468"><ele>280.0</ele><time>2026-04-11T21:51:19.999Z</time></trkpt><trkpt lat="43.61297007671229" lon="11.434131949859806"><ele>280.0</ele><time>2026-04-11T21:51:20.999Z</time></trkpt><trkpt lat="43.61286513257741" lon="11.434043433881468"><ele>280.0</ele><time>2026-04-11T21:51:21.999Z</time></trkpt><trkpt lat="43.61275939640225" lon="11.433945931328925"><ele>280.0</ele><time>2026-04-11T21:51:22.999Z</time></trkpt><trkpt lat="43.61265312108426" lon="11.43384096690367"><ele>281.25</ele><time>2026-04-11T21:51:23.999Z</time></trkpt><trkpt lat="43.61254175357277" lon="11.433739796912704"><ele>282.5</ele><time>2026-04-11T21:51:24.999Z</time></trkpt><trkpt lat="43.61242836307651" lon="11.433644144092442"><ele>283.75</ele><time>2026-04-11T21:51:25.999Z</time></trkpt><trkpt lat="43.61231800792186" lon="11.433560032473624"><ele>285.0</ele><time>2026-04-11T21:51:26.999Z</time></trkpt><trkpt lat="43.6122110700124" lon="11.433471702146823"><ele>285.0</ele><time>2026-04-11T21:51:27.999Z</time></trkpt><trkpt lat="43.612108710455864" lon="11.433376303207993"><ele>285.0</ele><time>2026-04-11T21:51:28.999Z</time></trkpt><trkpt lat="43.612006814995596" lon="11.433274430090206"><ele>285.0</ele><time>2026-04-11T21:51:29.999Z</time></trkpt><trkpt lat="43.61189645376614" lon="11.43317210283796"><ele>285.0</ele><time>2026-04-11T21:51:30.999Z</time></trkpt><trkpt lat="43.611785305555884" lon="11.433067552270618"><ele>283.0</ele><time>2026-04-11T21:51:31.999Z</time></trkpt><trkpt lat="43.611672304488394" lon="11.432956478022499"><ele>281.0</ele><time>2026-04-11T21:51:32.999Z</time></trkpt><trkpt lat="43.61156083489757" lon="11.432841907204311"><ele>279.0</ele><time>2026-04-11T21:51:33.999Z</time></trkpt><trkpt lat="43.61144426916456" lon="11.432728994344728"><ele>277.0</ele><time>2026-04-11T21:51:35Z</time></trkpt><trkpt lat="43.61131811039445" lon="11.432613440395844"><ele>277.0</ele><time>2026-04-11T21:51:36Z</time></trkpt><trkpt lat="43.611189478949335" lon="11.43249370957898"><ele>277.0</ele><time>2026-04-11T21:51:37Z</time></trkpt><trkpt lat="43.611051023414184" lon="11.432366896665682"><ele>277.0</ele><time>2026-04-11T21:51:38Z</time></trkpt><trkpt lat="43.610901707609486" lon="11.432233704503076"><ele>277.3333333333333</ele><time>2026-04-11T21:51:39Z</time></trkpt><trkpt lat="43.610758223781886" lon="11.432089581592987"><ele>277.6666666666667</ele><time>2026-04-11T21:51:40Z</time></trkpt><trkpt lat="43.61061287636615" lon="11.43195580887334"><ele>278.0</ele><time>2026-04-11T21:51:41Z</time></trkpt><trkpt lat="43.61046296601132" lon="11.431814974852456"><ele>278.0</ele><time>2026-04-11T21:51:42Z</time></trkpt><trkpt lat="43.61032878087913" lon="11.431686146838588"><ele>278.0</ele><time>2026-04-11T21:51:43Z</time></trkpt><trkpt lat="43.61021079745695" lon="11.431581239783437"><ele>278.0</ele><time>2026-04-11T21:51:44Z</time></trkpt><trkpt lat="43.61012548592022" lon="11.43147054357344"><ele>278.0</ele><time>2026-04-11T21:51:45Z</time></trkpt><trkpt lat="43.61004924011856" lon="11.431374353855167"><ele>278.8</ele><time>2026-04-11T21:51:46Z</time></trkpt><trkpt lat="43.60998039060066" lon="11.431273446448031"><ele>279.6</ele><time>2026-04-11T21:51:47Z</time></trkpt><trkpt lat="43.60990197657347" lon="11.431168396690133"><ele>280.4</ele><time>2026-04-11T21:51:48Z</time></trkpt><trkpt lat="43.60984138386638" lon="11.431043427854446"><ele>281.2</ele><time>2026-04-11T21:51:49Z</time></trkpt><trkpt lat="43.609784299041536" lon="11.430924817103584"><ele>282.0</ele><time>2026-04-11T21:51:50Z</time></trkpt><trkpt lat="43.60975526015275" lon="11.43080417283326"><ele>282.0</ele><time>2026-04-11T21:51:51Z</time></trkpt><trkpt lat="43.609730926670856" lon="11.430697137771554"><ele>282.0</ele><time>2026-04-11T21:51:52Z</time></trkpt><trkpt lat="43.609719811809704" lon="11.430581579073078"><ele>282.0</ele><time>2026-04-11T21:51:53Z</time></trkpt><trkpt lat="43.60974251973346" lon="11.430457717728915"><ele>282.0</ele><time>2026-04-11T21:51:54Z</time></trkpt><trkpt lat="43.60976191477953" lon="11.430322071677088"><ele>282.0</ele><time>2026-04-11T21:51:55Z</time></trkpt><trkpt lat="43.60978327165386" lon="11.430183741168081"><ele>282.0</ele><time>2026-04-11T21:51:56Z</time></trkpt><trkpt lat="43.609806811209594" lon="11.430031845678114"><ele>282.0</ele><time>2026-04-11T21:51:57Z</time></trkpt><trkpt lat="43.60983174253364" lon="11.429872285518345"><ele>282.0</ele><time>2026-04-11T21:51:58Z</time></trkpt><trkpt lat="43.609857981451405" lon="11.429704356258263"><ele>282.0</ele><time>2026-04-11T21:51:59Z</time></trkpt><trkpt lat="43.60988609769896" lon="11.42952425988767"><ele>282.0</ele><time>2026-04-11T21:52:00Z</time></trkpt><trkpt lat="43.60991436637897" lon="11.429339784829407"><ele>282.0</ele><time>2026-04-11T21:52:01Z</time></trkpt><trkpt lat="43.609942566525106" lon="11.42915336791089"><ele>282.0</ele><time>2026-04-11T21:52:02Z</time></trkpt><trkpt lat="43.6099698233882" lon="11.428968387256496"><ele>282.0</ele><time>2026-04-11T21:52:03Z</time></trkpt><trkpt lat="43.609995041057914" lon="11.428797245871593"><ele>282.5</ele><time>2026-04-11T21:52:04Z</time></trkpt><trkpt lat="43.61000698262709" lon="11.428643136489766"><ele>283.0</ele><time>2026-04-11T21:52:05Z</time></trkpt><trkpt lat="43.610036036297686" lon="11.428515743196092"><ele>283.5</ele><time>2026-04-11T21:52:06Z</time></trkpt><trkpt lat="43.610047368869886" lon="11.428395337535626"><ele>284.0</ele><time>2026-04-11T21:52:07Z</time></trkpt><trkpt lat="43.610040384248684" lon="11.42828751852857"><ele>284.5</ele><time>2026-04-11T21:52:08Z</time></trkpt><trkpt lat="43.61001287352718" lon="11.428203283213108"><ele>285.0</ele><time>2026-04-11T21:52:09Z</time></trkpt><trkpt lat="43.60991502392157" lon="11.428171715316642"><ele>285.0</ele><time>2026-04-11T21:52:10Z</time></trkpt><trkpt lat="43.60983856041099" lon="11.428150882386706"><ele>285.0</ele><time>2026-04-11T21:52:11Z</time></trkpt><trkpt lat="43.609750964691074" lon="11.42813491843592"><ele>285.0</ele><time>2026-04-11T21:52:12Z</time></trkpt><trkpt lat="43.60965322682099" lon="11.428114534811183"><ele>285.0</ele><time>2026-04-11T21:52:13Z</time></trkpt><trkpt lat="43.60955353203628" lon="11.428087883853063"><ele>285.0</ele><time>2026-04-11T21:52:14Z</time></trkpt><trkpt lat="43.609449515921106" lon="11.428060123369834"><ele>284.2</ele><time>2026-04-11T21:52:15Z</time></trkpt><trkpt lat="43.609341196342875" lon="11.42802651560492"><ele>283.4</ele><time>2026-04-11T21:52:16Z</time></trkpt><trkpt lat="43.60924165954841" lon="11.428011720537071"><ele>282.6</ele><time>2026-04-11T21:52:17Z</time></trkpt><trkpt lat="43.60914433677095" lon="11.42798067208872"><ele>281.8</ele><time>2026-04-11T21:52:18Z</time></trkpt><trkpt lat="43.60904152327444" lon="11.42796306082353"><ele>281.0</ele><time>2026-04-11T21:52:19Z</time></trkpt><trkpt lat="43.60893570944468" lon="11.427928470431679"><ele>281.0</ele><time>2026-04-11T21:52:20Z</time></trkpt><trkpt lat="43.608822654838264" lon="11.427897712649594"><ele>281.0</ele><time>2026-04-11T21:52:21Z</time></trkpt><trkpt lat="43.60870137976471" lon="11.42786462666543"><ele>281.0</ele><time>2026-04-11T21:52:22Z</time></trkpt><trkpt lat="43.6085762242817" lon="11.427830250527096"><ele>281.0</ele><time>2026-04-11T21:52:23Z</time></trkpt><trkpt lat="43.60844663980878" lon="11.427796666726975"><ele>280.0</ele><time>2026-04-11T21:52:24Z</time></trkpt><trkpt lat="43.60831661382343" lon="11.427762653179487"><ele>279.0</ele><time>2026-04-11T21:52:25Z</time></trkpt><trkpt lat="43.60817943344959" lon="11.427724043423652"><ele>278.0</ele><time>2026-04-11T21:52:25.999Z</time></trkpt><trkpt lat="43.608043268470276" lon="11.427686632305411"><ele>277.0</ele><time>2026-04-11T21:52:26.999Z</time></trkpt><trkpt lat="43.60791035500651" lon="11.427656058656959"><ele>276.6</ele><time>2026-04-11T21:52:27.999Z</time></trkpt><trkpt lat="43.60780007188282" lon="11.42762560904377"><ele>276.2</ele><time>2026-04-11T21:52:28.999Z</time></trkpt><trkpt lat="43.6077014326133" lon="11.427606443418252"><ele>275.8</ele><time>2026-04-11T21:52:29.999Z</time></trkpt><trkpt lat="43.60761677432918" lon="11.427582547442162"><ele>275.4</ele><time>2026-04-11T21:52:30.999Z</time></trkpt><trkpt lat="43.60752551095087" lon="11.427590964008019"><ele>275.0</ele><time>2026-04-11T21:52:31.999Z</time></trkpt><trkpt lat="43.607429368378995" lon="11.427599263060621"><ele>275.0</ele><time>2026-04-11T21:52:32.999Z</time></trkpt><trkpt lat="43.60733588613841" lon="11.42769653628775"><ele>275.0</ele><time>2026-04-11T21:52:33.999Z</time></trkpt><trkpt lat="43.60723657279972" lon="11.427781577109478"><ele>275.0</ele><time>2026-04-11T21:52:34.999Z</time></trkpt><trkpt lat="43.60714063200074" lon="11.427869873074295"><ele>275.0</ele><time>2026-04-11T21:52:35.999Z</time></trkpt><trkpt lat="43.607057286168924" lon="11.427950635637274"><ele>273.8</ele><time>2026-04-11T21:52:36.999Z</time></trkpt><trkpt lat="43.606985697512954" lon="11.428013412328113"><ele>272.6</ele><time>2026-04-11T21:52:37.999Z</time></trkpt><trkpt lat="43.6069338565713" lon="11.428066439577965"><ele>271.4</ele><time>2026-04-11T21:52:38.999Z</time></trkpt><trkpt lat="43.60685259401477" lon="11.42793018966372"><ele>270.2</ele><time>2026-04-11T21:52:42.999Z</time></trkpt><trkpt lat="43.60685849544151" lon="11.427811295624911"><ele>269.0</ele><time>2026-04-11T21:52:43.999Z</time></trkpt><trkpt lat="43.606849297749754" lon="11.427675800511556"><ele>268.75</ele><time>2026-04-11T21:52:44.999Z</time></trkpt><trkpt lat="43.60682353098162" lon="11.427526565056056"><ele>268.5</ele><time>2026-04-11T21:52:45.999Z</time></trkpt><trkpt lat="43.60681589092592" lon="11.427356059370728"><ele>268.25</ele><time>2026-04-11T21:52:46.999Z</time></trkpt><trkpt lat="43.6068039779262" lon="11.427173149379987"><ele>268.0</ele><time>2026-04-11T21:52:47.999Z</time></trkpt><trkpt lat="43.60679183642733" lon="11.426972205675897"><ele>267.75</ele><time>2026-04-11T21:52:48.999Z</time></trkpt><trkpt lat="43.60678064729209" lon="11.42677554477558"><ele>267.5</ele><time>2026-04-11T21:52:49.999Z</time></trkpt><trkpt lat="43.606770497286796" lon="11.426580525663505"><ele>267.25</ele><time>2026-04-11T21:52:50.999Z</time></trkpt><trkpt lat="43.60674243366907" lon="11.426372544700394"><ele>267.0</ele><time>2026-04-11T21:52:51.999Z</time></trkpt><trkpt lat="43.60669652558567" lon="11.426164476968454"><ele>267.0</ele><time>2026-04-11T21:52:52.999Z</time></trkpt><trkpt lat="43.60662861948939" lon="11.42596462927693"><ele>267.0</ele><time>2026-04-11T21:52:53.999Z</time></trkpt><trkpt lat="43.60654171409321" lon="11.425769281471931"><ele>267.0</ele><time>2026-04-11T21:52:54.999Z</time></trkpt><trkpt lat="43.606445160998135" lon="11.425577114349592"><ele>267.0</ele><time>2026-04-11T21:52:55.999Z</time></trkpt><trkpt lat="43.606345224543205" lon="11.425381066876056"><ele>267.0</ele><time>2026-04-11T21:52:56.999Z</time></trkpt><trkpt lat="43.60624408756495" lon="11.425191346053213"><ele>267.0</ele><time>2026-04-11T21:52:57.999Z</time></trkpt><trkpt lat="43.60614614039664" lon="11.424994310873084"><ele>267.0</ele><time>2026-04-11T21:52:58.999Z</time></trkpt><trkpt lat="43.6060525012582" lon="11.424798403494604"><ele>267.0</ele><time>2026-04-11T21:52:59.999Z</time></trkpt><trkpt lat="43.60596889281653" lon="11.424607836861941"><ele>267.0</ele><time>2026-04-11T21:53:00.999Z</time></trkpt><trkpt lat="43.60589496340705" lon="11.424434303380295"><ele>265.5</ele><time>2026-04-11T21:53:01.999Z</time></trkpt><trkpt lat="43.60582598318005" lon="11.424266978114174"><ele>264.0</ele><time>2026-04-11T21:53:02.999Z</time></trkpt><trkpt lat="43.60575432177701" lon="11.424101244530835"><ele>262.5</ele><time>2026-04-11T21:53:03.999Z</time></trkpt><trkpt lat="43.60566952356264" lon="11.423941236808263"><ele>261.0</ele><time>2026-04-11T21:53:04.999Z</time></trkpt><trkpt lat="43.6055876577559" lon="11.423760940851045"><ele>260.6666666666667</ele><time>2026-04-11T21:53:05.999Z</time></trkpt><trkpt lat="43.6054773072085" lon="11.42359936568407"><ele>260.33333333333337</ele><time>2026-04-11T21:53:06.999Z</time></trkpt><trkpt lat="43.60535886188201" lon="11.423444321930699"><ele>260.0</ele><time>2026-04-11T21:53:07.999Z</time></trkpt><trkpt lat="43.605257477800556" lon="11.42325515070309"><ele>260.6666666666667</ele><time>2026-04-11T21:53:08.999Z</time></trkpt><trkpt lat="43.60519199238428" lon="11.42303614721615"><ele>261.3333333333333</ele><time>2026-04-11T21:53:09.999Z</time></trkpt><trkpt lat="43.60511805415694" lon="11.422822912427035"><ele>262.0</ele><time>2026-04-11T21:53:10.999Z</time></trkpt><trkpt lat="43.60503238618761" lon="11.422624510701674"><ele>263.66666666666663</ele><time>2026-04-11T21:53:11.999Z</time></trkpt><trkpt lat="43.60496909071382" lon="11.422416671602576"><ele>265.3333333333333</ele><time>2026-04-11T21:53:12.999Z</time></trkpt><trkpt lat="43.604928354693264" lon="11.422196878426911"><ele>267.0</ele><time>2026-04-11T21:53:13.999Z</time></trkpt><trkpt lat="43.6049013622672" lon="11.421992230448481"><ele>267.6666666666667</ele><time>2026-04-11T21:53:14.999Z</time></trkpt><trkpt lat="43.60488140180308" lon="11.421777262331094"><ele>268.33333333333337</ele><time>2026-04-11T21:53:15.999Z</time></trkpt><trkpt lat="43.60485691779834" lon="11.421555974668934"><ele>269.0</ele><time>2026-04-11T21:53:16.999Z</time></trkpt><trkpt lat="43.60482047160787" lon="11.42135438353664"><ele>268.6666666666667</ele><time>2026-04-11T21:53:17.999Z</time></trkpt><trkpt lat="43.6047709565594" lon="11.421158492489651"><ele>268.3333333333333</ele><time>2026-04-11T21:53:18.999Z</time></trkpt><trkpt lat="43.60468218253075" lon="11.420974765658986"><ele>268.0</ele><time>2026-04-11T21:53:19.999Z</time></trkpt><trkpt lat="43.60459410557892" lon="11.420790836530353"><ele>268.0</ele><time>2026-04-11T21:53:20.999Z</time></trkpt><trkpt lat="43.60452746248337" lon="11.42060466156625"><ele>268.0</ele><time>2026-04-11T21:53:21.999Z</time></trkpt><trkpt lat="43.60444942842836" lon="11.420423737609603"><ele>268.0</ele><time>2026-04-11T21:53:22.999Z</time></trkpt><trkpt lat="43.604375415532665" lon="11.420241541224623"><ele>273.3333333333333</ele><time>2026-04-11T21:53:23.999Z</time></trkpt><trkpt lat="43.604301121709526" lon="11.42006577161105"><ele>278.6666666666667</ele><time>2026-04-11T21:53:24.999Z</time></trkpt><trkpt lat="43.604269971622024" lon="11.4198567731344"><ele>284.0</ele><time>2026-04-11T21:53:25.999Z</time></trkpt><trkpt lat="43.604236477658844" lon="11.419646392457867"><ele>284.33333333333337</ele><time>2026-04-11T21:53:26.999Z</time></trkpt><trkpt lat="43.60419344168994" lon="11.41942866772667"><ele>284.6666666666667</ele><time>2026-04-11T21:53:27.999Z</time></trkpt><trkpt lat="43.60416033583349" lon="11.419203316502646"><ele>285.0</ele><time>2026-04-11T21:53:28.999Z</time></trkpt><trkpt lat="43.604128057001176" lon="11.418987959594462"><ele>286.3333333333333</ele><time>2026-04-11T21:53:29.999Z</time></trkpt><trkpt lat="43.604091111587024" lon="11.41877841215705"><ele>287.66666666666663</ele><time>2026-04-11T21:53:30.999Z</time></trkpt><trkpt lat="43.60404731836356" lon="11.418570649577246"><ele>289.0</ele><time>2026-04-11T21:53:31.999Z</time></trkpt><trkpt lat="43.60400224936048" lon="11.418367006201363"><ele>289.0</ele><time>2026-04-11T21:53:32.999Z</time></trkpt><trkpt lat="43.60396124732744" lon="11.418172377862419"><ele>289.0</ele><time>2026-04-11T21:53:33.999Z</time></trkpt><trkpt lat="43.60391246858748" lon="11.417984504976205"><ele>289.0</ele><time>2026-04-11T21:53:34.999Z</time></trkpt><trkpt lat="43.60385157866475" lon="11.41780979988613"><ele>289.0</ele><time>2026-04-11T21:53:35.999Z</time></trkpt><trkpt lat="43.603764658038976" lon="11.417659474936684"><ele>291.25</ele><time>2026-04-11T21:53:36.999Z</time></trkpt><trkpt lat="43.60365129515503" lon="11.417539979390616"><ele>293.5</ele><time>2026-04-11T21:53:37.999Z</time></trkpt><trkpt lat="43.60351575020277" lon="11.417464578084626"><ele>295.75</ele><time>2026-04-11T21:53:38.999Z</time></trkpt><trkpt lat="43.60338042451273" lon="11.417415175033534"><ele>298.0</ele><time>2026-04-11T21:53:39.999Z</time></trkpt><trkpt lat="43.60323101571679" lon="11.41739716505278"><ele>298.0</ele><time>2026-04-11T21:53:41Z</time></trkpt><trkpt lat="43.60308254222204" lon="11.417387872216151"><ele>298.0</ele><time>2026-04-11T21:53:42Z</time></trkpt><trkpt lat="43.60293263202634" lon="11.41739559305021"><ele>298.0</ele><time>2026-04-11T21:53:43Z</time></trkpt><trkpt lat="43.60278566587943" lon="11.417409824202561"><ele>298.0</ele><time>2026-04-11T21:53:44Z</time></trkpt><trkpt lat="43.60263517314089" lon="11.41741603551787"><ele>299.5</ele><time>2026-04-11T21:53:45Z</time></trkpt><trkpt lat="43.60248634498029" lon="11.417416632461935"><ele>301.0</ele><time>2026-04-11T21:53:46Z</time></trkpt><trkpt lat="43.60234202850722" lon="11.417416350503027"><ele>302.5</ele><time>2026-04-11T21:53:47Z</time></trkpt><trkpt lat="43.60222424712181" lon="11.417416014942763"><ele>304.0</ele><time>2026-04-11T21:53:48Z</time></trkpt><trkpt lat="43.60212535266365" lon="11.417412686611963"><ele>304.0</ele><time>2026-04-11T21:53:49Z</time></trkpt><trkpt lat="43.60203837419332" lon="11.417365564666289"><ele>304.0</ele><time>2026-04-11T21:53:50Z</time></trkpt><trkpt lat="43.60196005519533" lon="11.417289670668952"><ele>304.0</ele><time>2026-04-11T21:53:51Z</time></trkpt><trkpt lat="43.601876732106845" lon="11.41720218779625"><ele>304.0</ele><time>2026-04-11T21:53:52Z</time></trkpt><trkpt lat="43.60182285368169" lon="11.417053259951384"><ele>304.0</ele><time>2026-04-11T21:53:53Z</time></trkpt><trkpt lat="43.60181648142378" lon="11.416879635487419"><ele>304.5</ele><time>2026-04-11T21:53:54Z</time></trkpt><trkpt lat="43.60183337930183" lon="11.416709569479108"><ele>305.0</ele><time>2026-04-11T21:53:55Z</time></trkpt><trkpt lat="43.60185244523111" lon="11.416530709867407"><ele>305.5</ele><time>2026-04-11T21:53:56Z</time></trkpt><trkpt lat="43.60185817119694" lon="11.416333285645498"><ele>306.0</ele><time>2026-04-11T21:53:57Z</time></trkpt><trkpt lat="43.60187978217453" lon="11.41613437280256"><ele>306.25</ele><time>2026-04-11T21:53:58Z</time></trkpt><trkpt lat="43.60191104951009" lon="11.415936653497903"><ele>306.5</ele><time>2026-04-11T21:53:59Z</time></trkpt><trkpt lat="43.60193043815917" lon="11.415737142845101"><ele>306.75</ele><time>2026-04-11T21:54:00Z</time></trkpt><trkpt lat="43.60195117592686" lon="11.41552374960957"><ele>307.0</ele><time>2026-04-11T21:54:01Z</time></trkpt><trkpt lat="43.60196980021979" lon="11.415308380653972"><ele>306.5</ele><time>2026-04-11T21:54:02Z</time></trkpt><trkpt lat="43.60198120484464" lon="11.415089251136244"><ele>306.0</ele><time>2026-04-11T21:54:03Z</time></trkpt><trkpt lat="43.602003639071015" lon="11.414896548416671"><ele>305.5</ele><time>2026-04-11T21:54:04Z</time></trkpt><trkpt lat="43.60201466017011" lon="11.414720109671254"><ele>305.0</ele><time>2026-04-11T21:54:05Z</time></trkpt><trkpt lat="43.60200762274028" lon="11.414552593101437"><ele>303.5</ele><time>2026-04-11T21:54:06Z</time></trkpt><trkpt lat="43.60198601317402" lon="11.414391496218945"><ele>302.0</ele><time>2026-04-11T21:54:07Z</time></trkpt><trkpt lat="43.601964558159644" lon="11.41423596189626"><ele>300.5</ele><time>2026-04-11T21:54:08Z</time></trkpt><trkpt lat="43.60194400825027" lon="11.414084943359917"><ele>299.0</ele><time>2026-04-11T21:54:09Z</time></trkpt><trkpt lat="43.60192257391506" lon="11.413939128689192"><ele>298.2</ele><time>2026-04-11T21:54:10Z</time></trkpt><trkpt lat="43.60190859506103" lon="11.413802968916656"><ele>297.4</ele><time>2026-04-11T21:54:11Z</time></trkpt><trkpt lat="43.601905067425584" lon="11.413661469618589"><ele>296.6</ele><time>2026-04-11T21:54:12Z</time></trkpt><trkpt lat="43.60191892457282" lon="11.413522155957775"><ele>295.8</ele><time>2026-04-11T21:54:13Z</time></trkpt><trkpt lat="43.601963600003955" lon="11.413402353393154"><ele>295.0</ele><time>2026-04-11T21:54:14Z</time></trkpt><trkpt lat="43.601966075021856" lon="11.413275729390223"><ele>295.0</ele><time>2026-04-11T21:54:15Z</time></trkpt><trkpt lat="43.601968059967" lon="11.413154536468285"><ele>295.0</ele><time>2026-04-11T21:54:16Z</time></trkpt><trkpt lat="43.60193436067429" lon="11.413030949092885"><ele>295.0</ele><time>2026-04-11T21:54:17Z</time></trkpt><trkpt lat="43.601870302271415" lon="11.412922520090769"><ele>295.0</ele><time>2026-04-11T21:54:18Z</time></trkpt><trkpt lat="43.601788792412485" lon="11.412833440908171"><ele>295.0</ele><time>2026-04-11T21:54:19Z</time></trkpt><trkpt lat="43.60166936299005" lon="11.412795294850199"><ele>295.4</ele><time>2026-04-11T21:54:20Z</time></trkpt><trkpt lat="43.60154621496348" lon="11.412800711194718"><ele>295.8</ele><time>2026-04-11T21:54:21Z</time></trkpt><trkpt lat="43.601441317073395" lon="11.41281067773912"><ele>296.2</ele><time>2026-04-11T21:54:22Z</time></trkpt><trkpt lat="43.60137779975346" lon="11.41276305107381"><ele>296.6</ele><time>2026-04-11T21:54:23Z</time></trkpt><trkpt lat="43.60134422258381" lon="11.41265527258426"><ele>297.0</ele><time>2026-04-11T21:54:24Z</time></trkpt><trkpt lat="43.60134664504939" lon="11.412510714137664"><ele>297.0</ele><time>2026-04-11T21:54:24.999Z</time></trkpt><trkpt lat="43.60137757002244" lon="11.412376666851292"><ele>297.0</ele><time>2026-04-11T21:54:25.999Z</time></trkpt><trkpt lat="43.60139607520935" lon="11.412248090815595"><ele>297.0</ele><time>2026-04-11T21:54:26.999Z</time></trkpt><trkpt lat="43.60141996092823" lon="11.41211271180755"><ele>297.0</ele><time>2026-04-11T21:54:27.999Z</time></trkpt><trkpt lat="43.60142674397805" lon="11.411996332964561"><ele>297.0</ele><time>2026-04-11T21:54:28.999Z</time></trkpt><trkpt lat="43.601394802546565" lon="11.411893207234405"><ele>297.2</ele><time>2026-04-11T21:54:29.999Z</time></trkpt><trkpt lat="43.60134235607905" lon="11.411829537374466"><ele>297.4</ele><time>2026-04-11T21:54:30.999Z</time></trkpt><trkpt lat="43.60128091275505" lon="11.411776183675077"><ele>297.6</ele><time>2026-04-11T21:54:31.999Z</time></trkpt><trkpt lat="43.60115728640533" lon="11.411852974445486"><ele>297.8</ele><time>2026-04-11T21:54:32.999Z</time></trkpt><trkpt lat="43.60105551482139" lon="11.4119246197484"><ele>298.0</ele><time>2026-04-11T21:54:33.999Z</time></trkpt><trkpt lat="43.600945942855994" lon="11.411979426407765"><ele>298.0</ele><time>2026-04-11T21:54:34.999Z</time></trkpt><trkpt lat="43.60084419719021" lon="11.412026830703427"><ele>298.0</ele><time>2026-04-11T21:54:35.999Z</time></trkpt><trkpt lat="43.6007532468038" lon="11.412068685261762"><ele>298.0</ele><time>2026-04-11T21:54:36.999Z</time></trkpt><trkpt lat="43.60068273573768" lon="11.41207292117252"><ele>298.0</ele><time>2026-04-11T21:54:37.999Z</time></trkpt><trkpt lat="43.60061392204171" lon="11.412012116775633"><ele>298.0</ele><time>2026-04-11T21:54:38.999Z</time></trkpt><trkpt lat="43.60055337042307" lon="11.411893132665307"><ele>298.0</ele><time>2026-04-11T21:54:39.999Z</time></trkpt><trkpt lat="43.6004960685159" lon="11.41173151638281"><ele>298.0</ele><time>2026-04-11T21:54:40.999Z</time></trkpt><trkpt lat="43.600481381231646" lon="11.411548068394996"><ele>298.0</ele><time>2026-04-11T21:54:41.999Z</time></trkpt><trkpt lat="43.600502794278434" lon="11.411365778031696"><ele>298.0</ele><time>2026-04-11T21:54:42.999Z</time></trkpt><trkpt lat="43.60052250472018" lon="11.41116377649679"><ele>300.66666666666663</ele><time>2026-04-11T21:54:43.999Z</time></trkpt><trkpt lat="43.60062790842738" lon="11.410991995617676"><ele>303.3333333333333</ele><time>2026-04-11T21:54:44.999Z</time></trkpt><trkpt lat="43.60068109391776" lon="11.41079340022811"><ele>306.0</ele><time>2026-04-11T21:54:45.999Z</time></trkpt><trkpt lat="43.60072306008766" lon="11.410572331777821"><ele>307.3333333333333</ele><time>2026-04-11T21:54:46.999Z</time></trkpt><trkpt lat="43.60075783894172" lon="11.410349081450141"><ele>308.66666666666663</ele><time>2026-04-11T21:54:47.999Z</time></trkpt><trkpt lat="43.600776398297505" lon="11.410106660873112"><ele>310.0</ele><time>2026-04-11T21:54:48.999Z</time></trkpt><trkpt lat="43.60076518725826" lon="11.409887520416389"><ele>310.0</ele><time>2026-04-11T21:54:49.999Z</time></trkpt><trkpt lat="43.60071652978376" lon="11.409687910609092"><ele>310.0</ele><time>2026-04-11T21:54:50.999Z</time></trkpt><trkpt lat="43.60063431964022" lon="11.409500305757359"><ele>310.0</ele><time>2026-04-11T21:54:51.999Z</time></trkpt><trkpt lat="43.60054125521015" lon="11.409304729917244"><ele>310.66666666666663</ele><time>2026-04-11T21:54:52.999Z</time></trkpt><trkpt lat="43.6004693711677" lon="11.40908884910035"><ele>311.3333333333333</ele><time>2026-04-11T21:54:53.999Z</time></trkpt><trkpt lat="43.60038425994607" lon="11.408890443844083"><ele>312.0</ele><time>2026-04-11T21:54:54.999Z</time></trkpt><trkpt lat="43.6003343761394" lon="11.408700338967146"><ele>312.0</ele><time>2026-04-11T21:54:55.999Z</time></trkpt><trkpt lat="43.600347040974626" lon="11.408530670720914"><ele>312.0</ele><time>2026-04-11T21:54:56.999Z</time></trkpt><trkpt lat="43.60036597383179" lon="11.408384233756133"><ele>312.0</ele><time>2026-04-11T21:54:57.999Z</time></trkpt><trkpt lat="43.600445429641404" lon="11.408271914123283"><ele>312.0</ele><time>2026-04-11T21:54:58.999Z</time></trkpt><trkpt lat="43.6005717514288" lon="11.408195953139334"><ele>312.0</ele><time>2026-04-11T21:54:59.999Z</time></trkpt><trkpt lat="43.6007216369938" lon="11.408153130202646"><ele>312.0</ele><time>2026-04-11T21:55:00.999Z</time></trkpt><trkpt lat="43.60087283916961" lon="11.40809220822749"><ele>312.0</ele><time>2026-04-11T21:55:01.999Z</time></trkpt><trkpt lat="43.60098885140824" lon="11.407978119372867"><ele>310.3333333333333</ele><time>2026-04-11T21:55:02.999Z</time></trkpt><trkpt lat="43.60105120211897" lon="11.407799339184175"><ele>308.66666666666663</ele><time>2026-04-11T21:55:03.999Z</time></trkpt><trkpt lat="43.60106301117844" lon="11.407581974492174"><ele>307.0</ele><time>2026-04-11T21:55:04.999Z</time></trkpt><trkpt lat="43.60103132508834" lon="11.407353331387302"><ele>309.0</ele><time>2026-04-11T21:55:05.999Z</time></trkpt><trkpt lat="43.60097564587156" lon="11.407134241544357"><ele>311.0</ele><time>2026-04-11T21:55:06.999Z</time></trkpt><trkpt lat="43.600908940048335" lon="11.406915775476469"><ele>313.0</ele><time>2026-04-11T21:55:07.999Z</time></trkpt><trkpt lat="43.600831527600484" lon="11.406705721036134"><ele>313.0</ele><time>2026-04-11T21:55:08.999Z</time></trkpt><trkpt lat="43.60077969683725" lon="11.406491632423736"><ele>313.0</ele><time>2026-04-11T21:55:09.999Z</time></trkpt><trkpt lat="43.600711895211134" lon="11.406295020859044"><ele>313.0</ele><time>2026-04-11T21:55:10.999Z</time></trkpt><trkpt lat="43.60063131409713" lon="11.406122446097788"><ele>312.0</ele><time>2026-04-11T21:55:11.999Z</time></trkpt><trkpt lat="43.60051399481631" lon="11.405979926071156"><ele>311.0</ele><time>2026-04-11T21:55:12.999Z</time></trkpt><trkpt lat="43.60037640279719" lon="11.405844821088094"><ele>310.0</ele><time>2026-04-11T21:55:13.999Z</time></trkpt><trkpt lat="43.60022512618234" lon="11.405739185239918"><ele>310.0</ele><time>2026-04-11T21:55:14.999Z</time></trkpt><trkpt lat="43.60007670938516" lon="11.40563572582504"><ele>310.0</ele><time>2026-04-11T21:55:15.999Z</time></trkpt><trkpt lat="43.59994925656849" lon="11.405532045310721"><ele>310.0</ele><time>2026-04-11T21:55:16.999Z</time></trkpt><trkpt lat="43.59985396027875" lon="11.405390801461305"><ele>310.75</ele><time>2026-04-11T21:55:17.999Z</time></trkpt><trkpt lat="43.5997733438628" lon="11.40524393792289"><ele>311.5</ele><time>2026-04-11T21:55:18.999Z</time></trkpt><trkpt lat="43.59967401805981" lon="11.405095067306972"><ele>312.25</ele><time>2026-04-11T21:55:19.999Z</time></trkpt><trkpt lat="43.59958937763445" lon="11.404927465232108"><ele>313.0</ele><time>2026-04-11T21:55:20.999Z</time></trkpt><trkpt lat="43.599497714913106" lon="11.404759036299735"><ele>312.25</ele><time>2026-04-11T21:55:21.999Z</time></trkpt><trkpt lat="43.599395957999064" lon="11.404594423814373"><ele>311.5</ele><time>2026-04-11T21:55:22.999Z</time></trkpt><trkpt lat="43.599326459656474" lon="11.40443264433051"><ele>310.75</ele><time>2026-04-11T21:55:23.999Z</time></trkpt><trkpt lat="43.599253854004935" lon="11.404301541348412"><ele>310.0</ele><time>2026-04-11T21:55:24.999Z</time></trkpt><trkpt lat="43.59919177187371" lon="11.404188815806267"><ele>310.0</ele><time>2026-04-11T21:55:25.999Z</time></trkpt><trkpt lat="43.59914153536759" lon="11.404091101580995"><ele>310.0</ele><time>2026-04-11T21:55:26.999Z</time></trkpt><trkpt lat="43.59910125888023" lon="11.404006128186705"><ele>310.0</ele><time>2026-04-11T21:55:27.999Z</time></trkpt><trkpt lat="43.599087777520914" lon="11.403823276040125"><ele>310.0</ele><time>2026-04-11T21:55:29.999Z</time></trkpt><trkpt lat="43.5991371079441" lon="11.40371315821226"><ele>310.0</ele><time>2026-04-11T21:55:30.999Z</time></trkpt><trkpt lat="43.59923465934664" lon="11.403649811286318"><ele>311.0</ele><time>2026-04-11T21:55:31.999Z</time></trkpt><trkpt lat="43.59932817092759" lon="11.403565922622484"><ele>312.0</ele><time>2026-04-11T21:55:32.999Z</time></trkpt><trkpt lat="43.59942266561849" lon="11.403464349622226"><ele>313.0</ele><time>2026-04-11T21:55:33.999Z</time></trkpt><trkpt lat="43.59952725411457" lon="11.403372414577268"><ele>314.0</ele><time>2026-04-11T21:55:34.999Z</time></trkpt><trkpt lat="43.599635599290494" lon="11.403295187756049"><ele>316.0</ele><time>2026-04-11T21:55:35.999Z</time></trkpt><trkpt lat="43.599742083230204" lon="11.403200896866899"><ele>318.0</ele><time>2026-04-11T21:55:36.999Z</time></trkpt><trkpt lat="43.59985421785088" lon="11.403101602326567"><ele>320.0</ele><time>2026-04-11T21:55:37.999Z</time></trkpt><trkpt lat="43.59995486095637" lon="11.402985895254426"><ele>322.0</ele><time>2026-04-11T21:55:38.999Z</time></trkpt><trkpt lat="43.600064135084594" lon="11.4028885025643"><ele>322.0</ele><time>2026-04-11T21:55:39.999Z</time></trkpt><trkpt lat="43.600183682295814" lon="11.402809218700375"><ele>322.0</ele><time>2026-04-11T21:55:40.999Z</time></trkpt><trkpt lat="43.600284713935" lon="11.402693342013293"><ele>322.0</ele><time>2026-04-11T21:55:41.999Z</time></trkpt><trkpt lat="43.6003851980391" lon="11.40258909934813"><ele>322.0</ele><time>2026-04-11T21:55:42.999Z</time></trkpt><trkpt lat="43.60046919162141" lon="11.402455919909315"><ele>321.75</ele><time>2026-04-11T21:55:43.999Z</time></trkpt><trkpt lat="43.60051562842965" lon="11.402288059037307"><ele>321.5</ele><time>2026-04-11T21:55:44.999Z</time></trkpt><trkpt lat="43.600542419895405" lon="11.40209872213891"><ele>321.25</ele><time>2026-04-11T21:55:45.999Z</time></trkpt><trkpt lat="43.600567435474794" lon="11.401900395116604"><ele>321.0</ele><time>2026-04-11T21:55:47Z</time></trkpt><trkpt lat="43.60059674092329" lon="11.401697315132406"><ele>321.0</ele><time>2026-04-11T21:55:48Z</time></trkpt><trkpt lat="43.60062953424105" lon="11.401494561732042"><ele>321.0</ele><time>2026-04-11T21:55:49Z</time></trkpt><trkpt lat="43.60066143533299" lon="11.401285526131698"><ele>321.0</ele><time>2026-04-11T21:55:50Z</time></trkpt><trkpt lat="43.60069690632272" lon="11.40106558266273"><ele>320.3333333333333</ele><time>2026-04-11T21:55:51Z</time></trkpt><trkpt lat="43.6007341208773" lon="11.400844919453622"><ele>319.66666666666663</ele><time>2026-04-11T21:55:52Z</time></trkpt><trkpt lat="43.60076525051166" lon="11.400627117459663"><ele>319.0</ele><time>2026-04-11T21:55:53Z</time></trkpt><trkpt lat="43.60079261020523" lon="11.400408538119336"><ele>319.0</ele><time>2026-04-11T21:55:54Z</time></trkpt><trkpt lat="43.600817514375606" lon="11.400195174190408"><ele>319.0</ele><time>2026-04-11T21:55:55Z</time></trkpt><trkpt lat="43.60084736186503" lon="11.399992069217234"><ele>319.0</ele><time>2026-04-11T21:55:56Z</time></trkpt><trkpt lat="43.60087220033751" lon="11.39979987404114"><ele>319.0</ele><time>2026-04-11T21:55:57Z</time></trkpt><trkpt lat="43.60089755015682" lon="11.39959934956302"><ele>320.3333333333333</ele><time>2026-04-11T21:55:58Z</time></trkpt><trkpt lat="43.60085821720504" lon="11.399394861782293"><ele>321.6666666666667</ele><time>2026-04-11T21:55:59Z</time></trkpt><trkpt lat="43.60080197060983" lon="11.399200272422858"><ele>323.0</ele><time>2026-04-11T21:56:00Z</time></trkpt><trkpt lat="43.60074175424927" lon="11.398998926129154"><ele>325.33333333333337</ele><time>2026-04-11T21:56:01Z</time></trkpt><trkpt lat="43.60065369603479" lon="11.398810432949022"><ele>327.6666666666667</ele><time>2026-04-11T21:56:02Z</time></trkpt><trkpt lat="43.600552234451605" lon="11.398617033551352"><ele>330.0</ele><time>2026-04-11T21:56:03Z</time></trkpt><trkpt lat="43.60044139461604" lon="11.398449262867166"><ele>330.3333333333333</ele><time>2026-04-11T21:56:04Z</time></trkpt><trkpt lat="43.600327467330644" lon="11.39826616994026"><ele>330.66666666666663</ele><time>2026-04-11T21:56:05Z</time></trkpt><trkpt lat="43.60020310800336" lon="11.398099027761678"><ele>331.0</ele><time>2026-04-11T21:56:06Z</time></trkpt><trkpt lat="43.60007225909295" lon="11.397944191192677"><ele>331.0</ele><time>2026-04-11T21:56:07Z</time></trkpt><trkpt lat="43.59993653327318" lon="11.397790806098545"><ele>331.0</ele><time>2026-04-11T21:56:08Z</time></trkpt><trkpt lat="43.59980109670136" lon="11.397634829435816"><ele>331.0</ele><time>2026-04-11T21:56:09Z</time></trkpt><trkpt lat="43.59965900823242" lon="11.397480500474824"><ele>331.0</ele><time>2026-04-11T21:56:10Z</time></trkpt><trkpt lat="43.5995144571935" lon="11.397333364305785"><ele>331.0</ele><time>2026-04-11T21:56:11Z</time></trkpt><trkpt lat="43.59933733938618" lon="11.39720745597535"><ele>331.0</ele><time>2026-04-11T21:56:12Z</time></trkpt><trkpt lat="43.599157627975124" lon="11.397084888915554"><ele>329.3333333333333</ele><time>2026-04-11T21:56:13Z</time></trkpt><trkpt lat="43.59898515742777" lon="11.396934591698082"><ele>327.6666666666667</ele><time>2026-04-11T21:56:14Z</time></trkpt><trkpt lat="43.598862614492255" lon="11.396732504665172"><ele>326.0</ele><time>2026-04-11T21:56:15Z</time></trkpt><trkpt lat="43.59874451415001" lon="11.396534365430751"><ele>325.0</ele><time>2026-04-11T21:56:16Z</time></trkpt><trkpt lat="43.59862339714701" lon="11.396329928445423"><ele>324.0</ele><time>2026-04-11T21:56:17Z</time></trkpt><trkpt lat="43.59849108762046" lon="11.396141093935158"><ele>323.0</ele><time>2026-04-11T21:56:18Z</time></trkpt><trkpt lat="43.59838279055468" lon="11.39592379830629"><ele>323.0</ele><time>2026-04-11T21:56:19Z</time></trkpt><trkpt lat="43.59827270454009" lon="11.395726232475743"><ele>323.0</ele><time>2026-04-11T21:56:20Z</time></trkpt><trkpt lat="43.598185178446265" lon="11.395544102776181"><ele>323.0</ele><time>2026-04-11T21:56:21Z</time></trkpt><trkpt lat="43.598116182065766" lon="11.395359559501328"><ele>324.6666666666667</ele><time>2026-04-11T21:56:22Z</time></trkpt><trkpt lat="43.59806256657215" lon="11.395171585213726"><ele>326.3333333333333</ele><time>2026-04-11T21:56:22.999Z</time></trkpt><trkpt lat="43.59800508365902" lon="11.394975367279846"><ele>328.0</ele><time>2026-04-11T21:56:23.999Z</time></trkpt><trkpt lat="43.59799975898704" lon="11.394757843230092"><ele>328.0</ele><time>2026-04-11T21:56:24.999Z</time></trkpt><trkpt lat="43.59798504449343" lon="11.394544483057818"><ele>328.0</ele><time>2026-04-11T21:56:25.999Z</time></trkpt><trkpt lat="43.597968598517184" lon="11.394336874936494"><ele>328.0</ele><time>2026-04-11T21:56:26.999Z</time></trkpt><trkpt lat="43.59793136068852" lon="11.39415697677031"><ele>328.0</ele><time>2026-04-11T21:56:27.999Z</time></trkpt><trkpt lat="43.597890628104224" lon="11.39398171835916"><ele>329.0</ele><time>2026-04-11T21:56:28.999Z</time></trkpt><trkpt lat="43.59781392889037" lon="11.393819065129332"><ele>330.0</ele><time>2026-04-11T21:56:29.999Z</time></trkpt><trkpt lat="43.5977104604678" lon="11.393684756315714"><ele>331.0</ele><time>2026-04-11T21:56:30.999Z</time></trkpt><trkpt lat="43.59756812700038" lon="11.393585833232414"><ele>332.0</ele><time>2026-04-11T21:56:31.999Z</time></trkpt><trkpt lat="43.59742957914832" lon="11.393503792668358"><ele>332.0</ele><time>2026-04-11T21:56:32.999Z</time></trkpt><trkpt lat="43.5972992158902" lon="11.393381270928144"><ele>332.0</ele><time>2026-04-11T21:56:33.999Z</time></trkpt><trkpt lat="43.59717706064194" lon="11.393263506330188"><ele>332.0</ele><time>2026-04-11T21:56:34.999Z</time></trkpt><trkpt lat="43.59707216740958" lon="11.393117814707903"><ele>332.33333333333337</ele><time>2026-04-11T21:56:35.999Z</time></trkpt><trkpt lat="43.59698630644735" lon="11.392951423724591"><ele>332.6666666666667</ele><time>2026-04-11T21:56:36.999Z</time></trkpt><trkpt lat="43.59690864258973" lon="11.392768795288214"><ele>333.0</ele><time>2026-04-11T21:56:37.999Z</time></trkpt><trkpt lat="43.59681906836893" lon="11.392584883472257"><ele>333.0</ele><time>2026-04-11T21:56:38.999Z</time></trkpt><trkpt lat="43.596755507376805" lon="11.392382134250587"><ele>333.0</ele><time>2026-04-11T21:56:39.999Z</time></trkpt><trkpt lat="43.59667768206424" lon="11.392183265692605"><ele>333.0</ele><time>2026-04-11T21:56:40.999Z</time></trkpt><trkpt lat="43.596599379441635" lon="11.391983131766157"><ele>336.3333333333333</ele><time>2026-04-11T21:56:41.999Z</time></trkpt><trkpt lat="43.5965222761749" lon="11.391784885729816"><ele>339.66666666666663</ele><time>2026-04-11T21:56:42.999Z</time></trkpt><trkpt lat="43.596445065124634" lon="11.391586362553028"><ele>343.0</ele><time>2026-04-11T21:56:43.999Z</time></trkpt><trkpt lat="43.59637019147606" lon="11.391393849366583"><ele>347.3333333333333</ele><time>2026-04-11T21:56:44.999Z</time></trkpt><trkpt lat="43.59629566220392" lon="11.391201087820392"><ele>351.6666666666667</ele><time>2026-04-11T21:56:45.999Z</time></trkpt><trkpt lat="43.596229283140936" lon="11.391003616235603"><ele>356.0</ele><time>2026-04-11T21:56:46.999Z</time></trkpt><trkpt lat="43.59617157145679" lon="11.390808019560076"><ele>350.33333333333337</ele><time>2026-04-11T21:56:47.999Z</time></trkpt><trkpt lat="43.59611333845756" lon="11.390606314549391"><ele>344.6666666666667</ele><time>2026-04-11T21:56:48.999Z</time></trkpt><trkpt lat="43.59605221250437" lon="11.390396027996118"><ele>339.0</ele><time>2026-04-11T21:56:49.999Z</time></trkpt><trkpt lat="43.595991481030744" lon="11.39018858563479"><ele>339.0</ele><time>2026-04-11T21:56:50.999Z</time></trkpt><trkpt lat="43.59593182359053" lon="11.389988266602984"><ele>339.0</ele><time>2026-04-11T21:56:51.999Z</time></trkpt><trkpt lat="43.59587065714928" lon="11.389782880359196"><ele>339.0</ele><time>2026-04-11T21:56:52.999Z</time></trkpt><trkpt lat="43.59581002786774" lon="11.389579298026723"><ele>339.6666666666667</ele><time>2026-04-11T21:56:53.999Z</time></trkpt><trkpt lat="43.59575265266535" lon="11.389378326708623"><ele>340.33333333333337</ele><time>2026-04-11T21:56:54.999Z</time></trkpt><trkpt lat="43.595697738761885" lon="11.38916700107318"><ele>341.0</ele><time>2026-04-11T21:56:55.999Z</time></trkpt><trkpt lat="43.59565837282502" lon="11.388961271347187"><ele>340.6666666666667</ele><time>2026-04-11T21:56:56.999Z</time></trkpt><trkpt lat="43.59562321988742" lon="11.388753307845043"><ele>340.3333333333333</ele><time>2026-04-11T21:56:57.999Z</time></trkpt><trkpt lat="43.59559027721285" lon="11.3885341302865"><ele>340.0</ele><time>2026-04-11T21:56:58.999Z</time></trkpt><trkpt lat="43.59555201714631" lon="11.38832119172821"><ele>340.0</ele><time>2026-04-11T21:56:59.999Z</time></trkpt><trkpt lat="43.59554989255602" lon="11.388104377698179"><ele>340.0</ele><time>2026-04-11T21:57:00.999Z</time></trkpt><trkpt lat="43.595606336769734" lon="11.387897551305503"><ele>340.0</ele><time>2026-04-11T21:57:01.999Z</time></trkpt><trkpt lat="43.595658933042756" lon="11.387692134236339"><ele>340.3333333333333</ele><time>2026-04-11T21:57:02.999Z</time></trkpt><trkpt lat="43.59571382571223" lon="11.387494816026303"><ele>340.6666666666667</ele><time>2026-04-11T21:57:03.999Z</time></trkpt><trkpt lat="43.595761233604705" lon="11.387285058036426"><ele>341.0</ele><time>2026-04-11T21:57:04.999Z</time></trkpt><trkpt lat="43.5958157456375" lon="11.387074333712333"><ele>341.0</ele><time>2026-04-11T21:57:05.999Z</time></trkpt><trkpt lat="43.59588690542596" lon="11.38687155620898"><ele>341.0</ele><time>2026-04-11T21:57:06.999Z</time></trkpt><trkpt lat="43.595941761645705" lon="11.386669425637056"><ele>341.0</ele><time>2026-04-11T21:57:07.999Z</time></trkpt><trkpt lat="43.59599526483429" lon="11.38647228042164"><ele>341.33333333333337</ele><time>2026-04-11T21:57:08.999Z</time></trkpt><trkpt lat="43.596052385755705" lon="11.38626614988662"><ele>341.6666666666667</ele><time>2026-04-11T21:57:09.999Z</time></trkpt><trkpt lat="43.59610121678986" lon="11.386055776122967"><ele>342.0</ele><time>2026-04-11T21:57:10.999Z</time></trkpt><trkpt lat="43.59617859012752" lon="11.385866534488047"><ele>344.3333333333333</ele><time>2026-04-11T21:57:11.999Z</time></trkpt><trkpt lat="43.596285496832444" lon="11.385715296837736"><ele>346.66666666666663</ele><time>2026-04-11T21:57:12.999Z</time></trkpt><trkpt lat="43.59639593103399" lon="11.385561628444124"><ele>349.0</ele><time>2026-04-11T21:57:13.999Z</time></trkpt><trkpt lat="43.596504043632216" lon="11.385386768632351"><ele>349.0</ele><time>2026-04-11T21:57:14.999Z</time></trkpt><trkpt lat="43.596616320565325" lon="11.385234040418167"><ele>349.0</ele><time>2026-04-11T21:57:15.999Z</time></trkpt><trkpt lat="43.59672190653846" lon="11.385085251294933"><ele>349.0</ele><time>2026-04-11T21:57:16.999Z</time></trkpt><trkpt lat="43.5968404100769" lon="11.384965592588664"><ele>349.0</ele><time>2026-04-11T21:57:17.999Z</time></trkpt><trkpt lat="43.59698561268414" lon="11.38494249939544"><ele>349.0</ele><time>2026-04-11T21:57:18.999Z</time></trkpt><trkpt lat="43.59713688487395" lon="11.384949267826514"><ele>349.0</ele><time>2026-04-11T21:57:19.999Z</time></trkpt><trkpt lat="43.597292420044" lon="11.384946553349346"><ele>352.66666666666663</ele><time>2026-04-11T21:57:20.999Z</time></trkpt><trkpt lat="43.59744612688655" lon="11.384923104133277"><ele>356.3333333333333</ele><time>2026-04-11T21:57:21.999Z</time></trkpt><trkpt lat="43.59760611202737" lon="11.384937723997318"><ele>360.0</ele><time>2026-04-11T21:57:22.999Z</time></trkpt><trkpt lat="43.59776260834535" lon="11.384897829852283"><ele>362.3333333333333</ele><time>2026-04-11T21:57:23.999Z</time></trkpt><trkpt lat="43.59789721689435" lon="11.38474668839577"><ele>364.66666666666663</ele><time>2026-04-11T21:57:24.999Z</time></trkpt><trkpt lat="43.59801202854878" lon="11.384599342990638"><ele>367.0</ele><time>2026-04-11T21:57:25.999Z</time></trkpt><trkpt lat="43.598114333755866" lon="11.384436574962137"><ele>367.0</ele><time>2026-04-11T21:57:26.999Z</time></trkpt><trkpt lat="43.598236320756335" lon="11.38430641373005"><ele>367.0</ele><time>2026-04-11T21:57:27.999Z</time></trkpt><trkpt lat="43.59840343442072" lon="11.384275492969804"><ele>367.0</ele><time>2026-04-11T21:57:28.999Z</time></trkpt><trkpt lat="43.598552844153645" lon="11.384185045129465"><ele>369.0</ele><time>2026-04-11T21:57:29.999Z</time></trkpt><trkpt lat="43.59869814097607" lon="11.384105217337064"><ele>371.0</ele><time>2026-04-11T21:57:30.999Z</time></trkpt><trkpt lat="43.59883755276427" lon="11.383972964640956"><ele>373.0</ele><time>2026-04-11T21:57:31.999Z</time></trkpt><trkpt lat="43.598975609295096" lon="11.383847195729722"><ele>371.0</ele><time>2026-04-11T21:57:32.999Z</time></trkpt><trkpt lat="43.59912262352276" lon="11.383728022708903"><ele>369.0</ele><time>2026-04-11T21:57:33.999Z</time></trkpt><trkpt lat="43.59927601491079" lon="11.383604297490281"><ele>367.0</ele><time>2026-04-11T21:57:34.999Z</time></trkpt><trkpt lat="43.5994442362326" lon="11.383477924787302"><ele>370.3333333333333</ele><time>2026-04-11T21:57:35.999Z</time></trkpt><trkpt lat="43.59960324503661" lon="11.383352946633407"><ele>373.6666666666667</ele><time>2026-04-11T21:57:36.999Z</time></trkpt><trkpt lat="43.59975087884934" lon="11.383198582447832"><ele>377.0</ele><time>2026-04-11T21:57:37.999Z</time></trkpt><trkpt lat="43.599888804960536" lon="11.383018941362137"><ele>375.0</ele><time>2026-04-11T21:57:38.999Z</time></trkpt><trkpt lat="43.60000132012033" lon="11.382792060916136"><ele>373.0</ele><time>2026-04-11T21:57:39.999Z</time></trkpt><trkpt lat="43.600086513511854" lon="11.382534626437485"><ele>371.0</ele><time>2026-04-11T21:57:40.999Z</time></trkpt><trkpt lat="43.600200041830696" lon="11.382310841983905"><ele>375.33333333333337</ele><time>2026-04-11T21:57:41.999Z</time></trkpt><trkpt lat="43.600334469531944" lon="11.382114652766305"><ele>379.6666666666667</ele><time>2026-04-11T21:57:42.999Z</time></trkpt><trkpt lat="43.600487346093786" lon="11.38193057484412"><ele>384.0</ele><time>2026-04-11T21:57:43.999Z</time></trkpt><trkpt lat="43.60062529771894" lon="11.381733941687411"><ele>384.0</ele><time>2026-04-11T21:57:44.999Z</time></trkpt><trkpt lat="43.60077015672483" lon="11.3815374017164"><ele>384.0</ele><time>2026-04-11T21:57:45.999Z</time></trkpt><trkpt lat="43.600903745493866" lon="11.38132352551343"><ele>384.0</ele><time>2026-04-11T21:57:46.999Z</time></trkpt><trkpt lat="43.60102410923331" lon="11.381104290725178"><ele>384.33333333333337</ele><time>2026-04-11T21:57:47.999Z</time></trkpt><trkpt lat="43.60113655149233" lon="11.380884003953014"><ele>384.6666666666667</ele><time>2026-04-11T21:57:48.999Z</time></trkpt><trkpt lat="43.60126274394507" lon="11.380673268090904"><ele>385.0</ele><time>2026-04-11T21:57:49.999Z</time></trkpt><trkpt lat="43.601358801356255" lon="11.380443800393572"><ele>389.6666666666667</ele><time>2026-04-11T21:57:50.999Z</time></trkpt><trkpt lat="43.60146639568163" lon="11.380227904423258"><ele>394.33333333333337</ele><time>2026-04-11T21:57:51.999Z</time></trkpt><trkpt lat="43.601569861137804" lon="11.380013896074741"><ele>399.0</ele><time>2026-04-11T21:57:53Z</time></trkpt><trkpt lat="43.60166158710603" lon="11.379777904501749"><ele>399.0</ele><time>2026-04-11T21:57:54Z</time></trkpt><trkpt lat="43.601714937869666" lon="11.379523389131135"><ele>399.0</ele><time>2026-04-11T21:57:55Z</time></trkpt><trkpt lat="43.601712941679445" lon="11.379251982495486"><ele>399.0</ele><time>2026-04-11T21:57:56Z</time></trkpt><trkpt lat="43.60169616858568" lon="11.378989870773337"><ele>399.33333333333337</ele><time>2026-04-11T21:57:57Z</time></trkpt><trkpt lat="43.6016978098878" lon="11.378721835212357"><ele>399.6666666666667</ele><time>2026-04-11T21:57:58Z</time></trkpt><trkpt lat="43.60174864204514" lon="11.378460628425287"><ele>400.0</ele><time>2026-04-11T21:57:59Z</time></trkpt><trkpt lat="43.60180605470384" lon="11.378195587786987"><ele>400.6666666666667</ele><time>2026-04-11T21:58:00Z</time></trkpt><trkpt lat="43.601859603862316" lon="11.377930066245407"><ele>401.33333333333337</ele><time>2026-04-11T21:58:01Z</time></trkpt><trkpt lat="43.60193618812175" lon="11.377672280227387"><ele>402.0</ele><time>2026-04-11T21:58:02Z</time></trkpt><trkpt lat="43.60200557962105" lon="11.377414752126157"><ele>404.0</ele><time>2026-04-11T21:58:03Z</time></trkpt><trkpt lat="43.60207308477634" lon="11.37715601215619"><ele>406.0</ele><time>2026-04-11T21:58:04Z</time></trkpt><trkpt lat="43.60214354932267" lon="11.376900498693804"><ele>408.0</ele><time>2026-04-11T21:58:05Z</time></trkpt><trkpt lat="43.60221184567089" lon="11.376648822916323"><ele>408.0</ele><time>2026-04-11T21:58:06Z</time></trkpt><trkpt lat="43.602281079304596" lon="11.376396539044734"><ele>408.0</ele><time>2026-04-11T21:58:07Z</time></trkpt><trkpt lat="43.60234696055264" lon="11.376144583333028"><ele>408.0</ele><time>2026-04-11T21:58:08Z</time></trkpt><trkpt lat="43.60241597100517" lon="11.375892185106583"><ele>410.0</ele><time>2026-04-11T21:58:09Z</time></trkpt><trkpt lat="43.60248511773273" lon="11.375640942030346"><ele>412.0</ele><time>2026-04-11T21:58:10Z</time></trkpt><trkpt lat="43.602557474670476" lon="11.375393662772982"><ele>414.0</ele><time>2026-04-11T21:58:11Z</time></trkpt><trkpt lat="43.602627035049814" lon="11.37514328889133"><ele>414.66666666666663</ele><time>2026-04-11T21:58:12Z</time></trkpt><trkpt lat="43.60269604886159" lon="11.374895371635297"><ele>415.3333333333333</ele><time>2026-04-11T21:58:13Z</time></trkpt><trkpt lat="43.602761384170506" lon="11.374643124797776"><ele>416.0</ele><time>2026-04-11T21:58:14Z</time></trkpt><trkpt lat="43.60282901780221" lon="11.374397607815242"><ele>417.0</ele><time>2026-04-11T21:58:15Z</time></trkpt><trkpt lat="43.602897928015565" lon="11.374155066465883"><ele>418.0</ele><time>2026-04-11T21:58:16Z</time></trkpt><trkpt lat="43.602962968738396" lon="11.373937963626794"><ele>419.0</ele><time>2026-04-11T21:58:17Z</time></trkpt><trkpt lat="43.60301575145749" lon="11.373744768324334"><ele>419.0</ele><time>2026-04-11T21:58:18Z</time></trkpt><trkpt lat="43.60306560466673" lon="11.373552519010518"><ele>419.0</ele><time>2026-04-11T21:58:19Z</time></trkpt><trkpt lat="43.60309034105007" lon="11.373371484182718"><ele>419.0</ele><time>2026-04-11T21:58:20Z</time></trkpt><trkpt lat="43.60307599223121" lon="11.373215835528569"><ele>419.0</ele><time>2026-04-11T21:58:21Z</time></trkpt><trkpt lat="43.60302648254874" lon="11.373099790990036"><ele>419.75</ele><time>2026-04-11T21:58:22Z</time></trkpt><trkpt lat="43.602965011114065" lon="11.37301332582226"><ele>420.5</ele><time>2026-04-11T21:58:23Z</time></trkpt><trkpt lat="43.60287818145516" lon="11.372958994575336"><ele>421.25</ele><time>2026-04-11T21:58:24Z</time></trkpt><trkpt lat="43.60273438694575" lon="11.373043050814761"><ele>422.0</ele><time>2026-04-11T21:58:25Z</time></trkpt><trkpt lat="43.60262282059078" lon="11.373024025525915"><ele>425.25</ele><time>2026-04-11T21:58:26Z</time></trkpt><trkpt lat="43.60253491395077" lon="11.372905124100582"><ele>428.5</ele><time>2026-04-11T21:58:27Z</time></trkpt><trkpt lat="43.602499627093465" lon="11.372751189301225"><ele>431.75</ele><time>2026-04-11T21:58:28Z</time></trkpt><trkpt lat="43.602465236804655" lon="11.372575877521557"><ele>435.0</ele><time>2026-04-11T21:58:29Z</time></trkpt><trkpt lat="43.602407346919364" lon="11.372414261756512"><ele>435.0</ele><time>2026-04-11T21:58:30Z</time></trkpt><trkpt lat="43.60236981052121" lon="11.372252420741262"><ele>435.0</ele><time>2026-04-11T21:58:30.999Z</time></trkpt><trkpt lat="43.60225692340475" lon="11.372152797117131"><ele>435.0</ele><time>2026-04-11T21:58:31.999Z</time></trkpt><trkpt lat="43.602102358184965" lon="11.372191107969627"><ele>435.0</ele><time>2026-04-11T21:58:32.999Z</time></trkpt><trkpt lat="43.60197929327088" lon="11.372281210158812"><ele>436.25</ele><time>2026-04-11T21:58:33.999Z</time></trkpt><trkpt lat="43.60185399803494" lon="11.372325389296595"><ele>437.5</ele><time>2026-04-11T21:58:34.999Z</time></trkpt><trkpt lat="43.60171964106429" lon="11.372369111185897"><ele>438.75</ele><time>2026-04-11T21:58:35.999Z</time></trkpt><trkpt lat="43.60157571241709" lon="11.372393038305885"><ele>440.0</ele><time>2026-04-11T21:58:36.999Z</time></trkpt><trkpt lat="43.60143645827595" lon="11.37238321692485"><ele>440.0</ele><time>2026-04-11T21:58:37.999Z</time></trkpt><trkpt lat="43.601295637585636" lon="11.372355975312685"><ele>440.0</ele><time>2026-04-11T21:58:38.999Z</time></trkpt><trkpt lat="43.60116233844815" lon="11.372356723408652"><ele>440.0</ele><time>2026-04-11T21:58:39.999Z</time></trkpt><trkpt lat="43.601050330644846" lon="11.37236647997105"><ele>440.0</ele><time>2026-04-11T21:58:40.999Z</time></trkpt><trkpt lat="43.60096472936932" lon="11.372441730125871"><ele>442.75</ele><time>2026-04-11T21:58:41.999Z</time></trkpt><trkpt lat="43.60090356294123" lon="11.372590440622043"><ele>445.5</ele><time>2026-04-11T21:58:42.999Z</time></trkpt><trkpt lat="43.60084793392449" lon="11.372740167616577"><ele>448.25</ele><time>2026-04-11T21:58:43.999Z</time></trkpt><trkpt lat="43.60079985449837" lon="11.372897238994788"><ele>451.0</ele><time>2026-04-11T21:58:44.999Z</time></trkpt><trkpt lat="43.60079984619716" lon="11.373066784382033"><ele>451.0</ele><time>2026-04-11T21:58:45.999Z</time></trkpt><trkpt lat="43.600873724547625" lon="11.373209747692282"><ele>451.0</ele><time>2026-04-11T21:58:46.999Z</time></trkpt><trkpt lat="43.60098754626496" lon="11.37331523943646"><ele>451.0</ele><time>2026-04-11T21:58:47.999Z</time></trkpt><trkpt lat="43.60108121503507" lon="11.373437528122457"><ele>451.0</ele><time>2026-04-11T21:58:48.999Z</time></trkpt><trkpt lat="43.601093096916166" lon="11.373554632677681"><ele>451.0</ele><time>2026-04-11T21:58:49.999Z</time></trkpt><trkpt lat="43.60106406985305" lon="11.373690907266427"><ele>451.0</ele><time>2026-04-11T21:58:50.999Z</time></trkpt><trkpt lat="43.60096639552435" lon="11.373781336590476"><ele>451.0</ele><time>2026-04-11T21:58:51.999Z</time></trkpt><trkpt lat="43.600861190804395" lon="11.373840958233847"><ele>451.0</ele><time>2026-04-11T21:58:52.999Z</time></trkpt><trkpt lat="43.60073174067354" lon="11.373889523376876"><ele>449.75</ele><time>2026-04-11T21:58:53.999Z</time></trkpt><trkpt lat="43.60059858826984" lon="11.373968165263138"><ele>448.5</ele><time>2026-04-11T21:58:54.999Z</time></trkpt><trkpt lat="43.600464809998094" lon="11.37404891932266"><ele>447.25</ele><time>2026-04-11T21:58:55.999Z</time></trkpt><trkpt lat="43.600364147736194" lon="11.37421035521298"><ele>446.0</ele><time>2026-04-11T21:58:56.999Z</time></trkpt><trkpt lat="43.60028042631831" lon="11.374380901805566"><ele>449.0</ele><time>2026-04-11T21:58:57.999Z</time></trkpt><trkpt lat="43.60020808319467" lon="11.374502247874165"><ele>452.0</ele><time>2026-04-11T21:58:58.999Z</time></trkpt><trkpt lat="43.60012289862821" lon="11.374548655444555"><ele>455.0</ele><time>2026-04-11T21:58:59.999Z</time></trkpt><trkpt lat="43.60003922329279" lon="11.374498663161791"><ele>458.0</ele><time>2026-04-11T21:59:00.999Z</time></trkpt><trkpt lat="43.59997765038237" lon="11.374406353674923"><ele>461.0</ele><time>2026-04-11T21:59:01.999Z</time></trkpt><trkpt lat="43.59996381694457" lon="11.374255059695011"><ele>461.0</ele><time>2026-04-11T21:59:02.999Z</time></trkpt><trkpt lat="43.60001743516391" lon="11.374106894429989"><ele>461.0</ele><time>2026-04-11T21:59:03.999Z</time></trkpt><trkpt lat="43.60003852935829" lon="11.373935709474257"><ele>461.0</ele><time>2026-04-11T21:59:04.999Z</time></trkpt><trkpt lat="43.60002269234325" lon="11.373769114689734"><ele>461.0</ele><time>2026-04-11T21:59:05.999Z</time></trkpt><trkpt lat="43.59997214957" lon="11.373607571317129"><ele>461.0</ele><time>2026-04-11T21:59:06.999Z</time></trkpt><trkpt lat="43.59986268744764" lon="11.373489997078874"><ele>461.0</ele><time>2026-04-11T21:59:07.999Z</time></trkpt><trkpt lat="43.599730082867815" lon="11.373431841239872"><ele>461.0</ele><time>2026-04-11T21:59:08.999Z</time></trkpt><trkpt lat="43.59957721039772" lon="11.373427174518136"><ele>461.0</ele><time>2026-04-11T21:59:09.999Z</time></trkpt><trkpt lat="43.59941585913313" lon="11.373459845737889"><ele>464.66666666666663</ele><time>2026-04-11T21:59:10.999Z</time></trkpt><trkpt lat="43.59926096416492" lon="11.373420544944306"><ele>468.33333333333337</ele><time>2026-04-11T21:59:11.999Z</time></trkpt><trkpt lat="43.59911238232057" lon="11.373373032111378"><ele>472.0</ele><time>2026-04-11T21:59:12.999Z</time></trkpt><trkpt lat="43.59897634632392" lon="11.373297177408883"><ele>472.0</ele><time>2026-04-11T21:59:13.999Z</time></trkpt><trkpt lat="43.59887440207071" lon="11.373208928284894"><ele>472.0</ele><time>2026-04-11T21:59:14.999Z</time></trkpt><trkpt lat="43.59883033705639" lon="11.373095207396883"><ele>472.0</ele><time>2026-04-11T21:59:15.999Z</time></trkpt><trkpt lat="43.5989020536937" lon="11.372960489615162"><ele>472.0</ele><time>2026-04-11T21:59:16.999Z</time></trkpt><trkpt lat="43.598923500770766" lon="11.372801845075964"><ele>471.5</ele><time>2026-04-11T21:59:17.999Z</time></trkpt><trkpt lat="43.59893115302491" lon="11.37263080001636"><ele>471.0</ele><time>2026-04-11T21:59:18.999Z</time></trkpt><trkpt lat="43.59892991566006" lon="11.372450237583015"><ele>470.5</ele><time>2026-04-11T21:59:19.999Z</time></trkpt><trkpt lat="43.59887759681018" lon="11.37227622061187"><ele>470.0</ele><time>2026-04-11T21:59:20.999Z</time></trkpt><trkpt lat="43.59878079317152" lon="11.372145950866795"><ele>471.25</ele><time>2026-04-11T21:59:21.999Z</time></trkpt><trkpt lat="43.59865495183148" lon="11.372067342197692"><ele>472.5</ele><time>2026-04-11T21:59:22.999Z</time></trkpt><trkpt lat="43.59851625146779" lon="11.372041669933504"><ele>473.75</ele><time>2026-04-11T21:59:23.999Z</time></trkpt><trkpt lat="43.5983688816457" lon="11.372082259756786"><ele>475.0</ele><time>2026-04-11T21:59:24.999Z</time></trkpt><trkpt lat="43.598235445003766" lon="11.372117530480828"><ele>475.0</ele><time>2026-04-11T21:59:25.999Z</time></trkpt><trkpt lat="43.59813213342369" lon="11.372103559041813"><ele>475.0</ele><time>2026-04-11T21:59:26.999Z</time></trkpt><trkpt lat="43.59807703497961" lon="11.372000935066314"><ele>475.0</ele><time>2026-04-11T21:59:27.999Z</time></trkpt><trkpt lat="43.598072710614204" lon="11.371852709705024"><ele>475.0</ele><time>2026-04-11T21:59:28.999Z</time></trkpt><trkpt lat="43.59810345625021" lon="11.371685232154999"><ele>475.0</ele><time>2026-04-11T21:59:29.999Z</time></trkpt><trkpt lat="43.598132231846485" lon="11.371477042183542"><ele>477.33333333333337</ele><time>2026-04-11T21:59:30.999Z</time></trkpt><trkpt lat="43.5981800315195" lon="11.371272059584594"><ele>479.66666666666663</ele><time>2026-04-11T21:59:31.999Z</time></trkpt><trkpt lat="43.598260812431334" lon="11.371073577697766"><ele>482.0</ele><time>2026-04-11T21:59:32.999Z</time></trkpt><trkpt lat="43.598371697197905" lon="11.370911973824727"><ele>482.0</ele><time>2026-04-11T21:59:33.999Z</time></trkpt><trkpt lat="43.59850515821862" lon="11.370759879010247"><ele>482.0</ele><time>2026-04-11T21:59:34.999Z</time></trkpt><trkpt lat="43.598652446553906" lon="11.370619115551873"><ele>482.0</ele><time>2026-04-11T21:59:35.999Z</time></trkpt><trkpt lat="43.5988103693961" lon="11.37054247370827"><ele>482.5</ele><time>2026-04-11T21:59:36.999Z</time></trkpt><trkpt lat="43.59895853003196" lon="11.370566490521602"><ele>483.0</ele><time>2026-04-11T21:59:37.999Z</time></trkpt><trkpt lat="43.599103613999226" lon="11.37065512723383"><ele>483.5</ele><time>2026-04-11T21:59:38.999Z</time></trkpt><trkpt lat="43.59924353344635" lon="11.370672713328913"><ele>484.0</ele><time>2026-04-11T21:59:39.999Z</time></trkpt><trkpt lat="43.59937464506136" lon="11.370615314986685"><ele>486.33333333333337</ele><time>2026-04-11T21:59:40.999Z</time></trkpt><trkpt lat="43.599479927661655" lon="11.370447436752327"><ele>488.66666666666663</ele><time>2026-04-11T21:59:41.999Z</time></trkpt><trkpt lat="43.599526295254385" lon="11.370247839957207"><ele>491.0</ele><time>2026-04-11T21:59:42.999Z</time></trkpt><trkpt lat="43.599523859053946" lon="11.370028936587852"><ele>491.25</ele><time>2026-04-11T21:59:43.999Z</time></trkpt><trkpt lat="43.599573370188246" lon="11.369832705672584"><ele>491.5</ele><time>2026-04-11T21:59:44.999Z</time></trkpt><trkpt lat="43.5996485271671" lon="11.369683929832044"><ele>491.75</ele><time>2026-04-11T21:59:45.999Z</time></trkpt><trkpt lat="43.59975311080023" lon="11.369577308621254"><ele>492.0</ele><time>2026-04-11T21:59:46.999Z</time></trkpt><trkpt lat="43.5998823946074" lon="11.369535942786015"><ele>492.0</ele><time>2026-04-11T21:59:47.999Z</time></trkpt><trkpt lat="43.60001547531357" lon="11.36958350134837"><ele>492.0</ele><time>2026-04-11T21:59:48.999Z</time></trkpt><trkpt lat="43.6001343016385" lon="11.369692010202238"><ele>492.0</ele><time>2026-04-11T21:59:49.999Z</time></trkpt><trkpt lat="43.60025306031508" lon="11.369812819785734"><ele>492.0</ele><time>2026-04-11T21:59:50.999Z</time></trkpt><trkpt lat="43.60034353464" lon="11.369935892014801"><ele>492.0</ele><time>2026-04-11T21:59:51.999Z</time></trkpt><trkpt lat="43.600441926605036" lon="11.369994927826063"><ele>492.0</ele><time>2026-04-11T21:59:52.999Z</time></trkpt><trkpt lat="43.60054992027965" lon="11.369978379632835"><ele>492.0</ele><time>2026-04-11T21:59:53.999Z</time></trkpt><trkpt lat="43.600649485048" lon="11.369846620759242"><ele>492.0</ele><time>2026-04-11T21:59:54.999Z</time></trkpt><trkpt lat="43.60070887969215" lon="11.369681635990089"><ele>494.0</ele><time>2026-04-11T21:59:55.999Z</time></trkpt><trkpt lat="43.600773621684084" lon="11.36950509502078"><ele>496.0</ele><time>2026-04-11T21:59:56.999Z</time></trkpt><trkpt lat="43.600822209177274" lon="11.36931668504267"><ele>498.0</ele><time>2026-04-11T21:59:57.999Z</time></trkpt><trkpt lat="43.60084545627744" lon="11.369131186332494"><ele>500.0</ele><time>2026-04-11T21:59:59Z</time></trkpt><trkpt lat="43.600826844678544" lon="11.36895959632279"><ele>499.0</ele><time>2026-04-11T22:00:00Z</time></trkpt><trkpt lat="43.60075874151454" lon="11.3688045743403"><ele>498.0</ele><time>2026-04-11T22:00:01Z</time></trkpt><trkpt lat="43.60063553409197" lon="11.368671351350368"><ele>497.0</ele><time>2026-04-11T22:00:02Z</time></trkpt><trkpt lat="43.60051174062088" lon="11.368527567012876"><ele>497.0</ele><time>2026-04-11T22:00:03Z</time></trkpt><trkpt lat="43.60038565989779" lon="11.368399920027057"><ele>497.0</ele><time>2026-04-11T22:00:04Z</time></trkpt><trkpt lat="43.60023982920743" lon="11.368285466649743"><ele>497.0</ele><time>2026-04-11T22:00:05Z</time></trkpt><trkpt lat="43.600130788800385" lon="11.368134350235687"><ele>500.3333333333333</ele><time>2026-04-11T22:00:06Z</time></trkpt><trkpt lat="43.60007943648434" lon="11.367937679491435"><ele>503.66666666666663</ele><time>2026-04-11T22:00:07Z</time></trkpt><trkpt lat="43.60001325021384" lon="11.367748614044693"><ele>507.0</ele><time>2026-04-11T22:00:08Z</time></trkpt><trkpt lat="43.59992985277938" lon="11.367573609448264"><ele>507.0</ele><time>2026-04-11T22:00:09Z</time></trkpt><trkpt lat="43.599799260584824" lon="11.367460246285013"><ele>507.0</ele><time>2026-04-11T22:00:10Z</time></trkpt><trkpt lat="43.59962912404903" lon="11.367401500609411"><ele>507.0</ele><time>2026-04-11T22:00:11Z</time></trkpt><trkpt lat="43.59950350531704" lon="11.367282595773688"><ele>510.33333333333337</ele><time>2026-04-11T22:00:12Z</time></trkpt><trkpt lat="43.599380332935695" lon="11.3671632179816"><ele>513.6666666666667</ele><time>2026-04-11T22:00:13Z</time></trkpt><trkpt lat="43.599261316132385" lon="11.36704879595168"><ele>517.0</ele><time>2026-04-11T22:00:14Z</time></trkpt><trkpt lat="43.599133374311386" lon="11.366925872192562"><ele>517.0</ele><time>2026-04-11T22:00:15Z</time></trkpt><trkpt lat="43.59900850632294" lon="11.366799444596985"><ele>517.0</ele><time>2026-04-11T22:00:16Z</time></trkpt><trkpt lat="43.59890586882216" lon="11.366654424373953"><ele>517.0</ele><time>2026-04-11T22:00:17Z</time></trkpt><trkpt lat="43.59889754475746" lon="11.366448167007771"><ele>517.5</ele><time>2026-04-11T22:00:18Z</time></trkpt><trkpt lat="43.59894345115117" lon="11.36626985684911"><ele>518.0</ele><time>2026-04-11T22:00:19Z</time></trkpt><trkpt lat="43.59898642068382" lon="11.366085353743728"><ele>518.5</ele><time>2026-04-11T22:00:20Z</time></trkpt><trkpt lat="43.59903017813391" lon="11.36589767925688"><ele>519.0</ele><time>2026-04-11T22:00:21Z</time></trkpt><trkpt lat="43.59905635548168" lon="11.365692685578512"><ele>519.0</ele><time>2026-04-11T22:00:22Z</time></trkpt><trkpt lat="43.59902974275655" lon="11.365483658048193"><ele>519.0</ele><time>2026-04-11T22:00:23Z</time></trkpt><trkpt lat="43.59895341791292" lon="11.365280950815567"><ele>519.0</ele><time>2026-04-11T22:00:24Z</time></trkpt><trkpt lat="43.598840768909966" lon="11.3650920429147"><ele>519.0</ele><time>2026-04-11T22:00:25Z</time></trkpt><trkpt lat="43.598720784071745" lon="11.364937679875139"><ele>519.0</ele><time>2026-04-11T22:00:26Z</time></trkpt><trkpt lat="43.59857373905741" lon="11.364806811230185"><ele>519.0</ele><time>2026-04-11T22:00:27Z</time></trkpt><trkpt lat="43.59844597293903" lon="11.364666577543579"><ele>522.0</ele><time>2026-04-11T22:00:28Z</time></trkpt><trkpt lat="43.59834636065719" lon="11.36455013012437"><ele>525.0</ele><time>2026-04-11T22:00:28.999Z</time></trkpt><trkpt lat="43.59827717051409" lon="11.364402823640859"><ele>528.0</ele><time>2026-04-11T22:00:29.999Z</time></trkpt><trkpt lat="43.59825795558234" lon="11.364241073557723"><ele>531.0</ele><time>2026-04-11T22:00:30.999Z</time></trkpt><trkpt lat="43.59824472871739" lon="11.364076664127305"><ele>531.0</ele><time>2026-04-11T22:00:31.999Z</time></trkpt><trkpt lat="43.59821645290786" lon="11.363916023090457"><ele>531.0</ele><time>2026-04-11T22:00:32.999Z</time></trkpt><trkpt lat="43.59819756399345" lon="11.363765411879847"><ele>531.0</ele><time>2026-04-11T22:00:33.999Z</time></trkpt><trkpt lat="43.598160524502305" lon="11.363618969724351"><ele>531.0</ele><time>2026-04-11T22:00:34.999Z</time></trkpt><trkpt lat="43.59810780479314" lon="11.363483762391228"><ele>531.25</ele><time>2026-04-11T22:00:35.999Z</time></trkpt><trkpt lat="43.598032218802686" lon="11.36336000027052"><ele>531.5</ele><time>2026-04-11T22:00:36.999Z</time></trkpt><trkpt lat="43.597928303360874" lon="11.363245194974635"><ele>531.75</ele><time>2026-04-11T22:00:37.999Z</time></trkpt><trkpt lat="43.597798441867916" lon="11.363160467376876"><ele>532.0</ele><time>2026-04-11T22:00:38.999Z</time></trkpt><trkpt lat="43.59765774795303" lon="11.36311055851399"><ele>532.0</ele><time>2026-04-11T22:00:39.999Z</time></trkpt><trkpt lat="43.59751771439242" lon="11.36308617673741"><ele>532.0</ele><time>2026-04-11T22:00:40.999Z</time></trkpt><trkpt lat="43.59738080447615" lon="11.36306616790415"><ele>532.0</ele><time>2026-04-11T22:00:41.999Z</time></trkpt><trkpt lat="43.59724988729705" lon="11.363003651681328"><ele>532.0</ele><time>2026-04-11T22:00:42.999Z</time></trkpt><trkpt lat="43.597120152293556" lon="11.362950336524415"><ele>530.5</ele><time>2026-04-11T22:00:43.999Z</time></trkpt><trkpt lat="43.597005452499054" lon="11.362890380621229"><ele>529.0</ele><time>2026-04-11T22:00:44.999Z</time></trkpt><trkpt lat="43.59690708979562" lon="11.362804263601252"><ele>527.5</ele><time>2026-04-11T22:00:45.999Z</time></trkpt><trkpt lat="43.59682017920116" lon="11.362696215313209"><ele>526.0</ele><time>2026-04-11T22:00:46.999Z</time></trkpt><trkpt lat="43.59676712946202" lon="11.362565185057624"><ele>526.0</ele><time>2026-04-11T22:00:47.999Z</time></trkpt><trkpt lat="43.59670331949914" lon="11.362427801814844"><ele>526.0</ele><time>2026-04-11T22:00:48.999Z</time></trkpt><trkpt lat="43.59665391628267" lon="11.362281851211362"><ele>526.0</ele><time>2026-04-11T22:00:49.999Z</time></trkpt><trkpt lat="43.596570542345276" lon="11.362170657110827"><ele>526.0</ele><time>2026-04-11T22:00:50.999Z</time></trkpt><trkpt lat="43.596447385673564" lon="11.362112838747265"><ele>525.25</ele><time>2026-04-11T22:00:51.999Z</time></trkpt><trkpt lat="43.59629585262969" lon="11.362112011892842"><ele>524.5</ele><time>2026-04-11T22:00:52.999Z</time></trkpt><trkpt lat="43.59615405940257" lon="11.362147573078799"><ele>523.75</ele><time>2026-04-11T22:00:53.999Z</time></trkpt><trkpt lat="43.59601793350575" lon="11.362204164488611"><ele>523.0</ele><time>2026-04-11T22:00:54.999Z</time></trkpt><trkpt lat="43.59587400765196" lon="11.362292301226239"><ele>523.0</ele><time>2026-04-11T22:00:55.999Z</time></trkpt><trkpt lat="43.595732959979614" lon="11.362428988579792"><ele>523.0</ele><time>2026-04-11T22:00:56.999Z</time></trkpt><trkpt lat="43.595562249370175" lon="11.362540930708995"><ele>523.0</ele><time>2026-04-11T22:00:57.999Z</time></trkpt><trkpt lat="43.59539016015146" lon="11.362680493446083"><ele>517.3333333333334</ele><time>2026-04-11T22:00:58.999Z</time></trkpt><trkpt lat="43.59520930287478" lon="11.362798282996362"><ele>511.66666666666663</ele><time>2026-04-11T22:00:59.999Z</time></trkpt><trkpt lat="43.59502063342214" lon="11.362905233736758"><ele>506.0</ele><time>2026-04-11T22:01:00.999Z</time></trkpt><trkpt lat="43.594845611218076" lon="11.363018030721504"><ele>510.66666666666663</ele><time>2026-04-11T22:01:01.999Z</time></trkpt><trkpt lat="43.594705305406976" lon="11.363208994600646"><ele>515.3333333333334</ele><time>2026-04-11T22:01:02.999Z</time></trkpt><trkpt lat="43.59455085204818" lon="11.36336961850331"><ele>520.0</ele><time>2026-04-11T22:01:03.999Z</time></trkpt><trkpt lat="43.5943926670477" lon="11.363462493474666"><ele>520.0</ele><time>2026-04-11T22:01:04.999Z</time></trkpt><trkpt lat="43.59422665701072" lon="11.36349714415266"><ele>520.0</ele><time>2026-04-11T22:01:05.999Z</time></trkpt><trkpt lat="43.59406390813698" lon="11.363443692950774"><ele>520.0</ele><time>2026-04-11T22:01:06.999Z</time></trkpt><trkpt lat="43.59389939599601" lon="11.363350466981757"><ele>520.0</ele><time>2026-04-11T22:01:07.999Z</time></trkpt><trkpt lat="43.59371919659295" lon="11.363266600438525"><ele>520.0</ele><time>2026-04-11T22:01:08.999Z</time></trkpt><trkpt lat="43.59353666661313" lon="11.363199098805902"><ele>520.0</ele><time>2026-04-11T22:01:09.999Z</time></trkpt><trkpt lat="43.5933438345279" lon="11.363192051610348"><ele>522.3333333333334</ele><time>2026-04-11T22:01:10.999Z</time></trkpt><trkpt lat="43.59314818827499" lon="11.363243613473662"><ele>524.6666666666666</ele><time>2026-04-11T22:01:11.999Z</time></trkpt><trkpt lat="43.59296982859733" lon="11.363273699639604"><ele>527.0</ele><time>2026-04-11T22:01:12.999Z</time></trkpt><trkpt lat="43.59281624224922" lon="11.363311106159838"><ele>528.0</ele><time>2026-04-11T22:01:13.999Z</time></trkpt><trkpt lat="43.59269153637492" lon="11.36329903100549"><ele>529.0</ele><time>2026-04-11T22:01:14.999Z</time></trkpt><trkpt lat="43.592588875896276" lon="11.363295253146719"><ele>530.0</ele><time>2026-04-11T22:01:15.999Z</time></trkpt><trkpt lat="43.592499948280754" lon="11.363229044595837"><ele>531.0</ele><time>2026-04-11T22:01:16.999Z</time></trkpt><trkpt lat="43.59244453978622" lon="11.363101135474537"><ele>532.0</ele><time>2026-04-11T22:01:17.999Z</time></trkpt><trkpt lat="43.5924689448963" lon="11.362935647803013"><ele>532.0</ele><time>2026-04-11T22:01:18.999Z</time></trkpt><trkpt lat="43.59249297677007" lon="11.362771192461791"><ele>532.0</ele><time>2026-04-11T22:01:19.999Z</time></trkpt><trkpt lat="43.59254538787078" lon="11.362580860651253"><ele>532.0</ele><time>2026-04-11T22:01:20.999Z</time></trkpt><trkpt lat="43.592614078488666" lon="11.362376634671739"><ele>532.0</ele><time>2026-04-11T22:01:21.999Z</time></trkpt><trkpt lat="43.592691595282616" lon="11.362153774173775"><ele>532.0</ele><time>2026-04-11T22:01:22.999Z</time></trkpt><trkpt lat="43.59278839937339" lon="11.361937413618694"><ele>532.0</ele><time>2026-04-11T22:01:23.999Z</time></trkpt><trkpt lat="43.592870500051674" lon="11.361709893922878"><ele>532.0</ele><time>2026-04-11T22:01:24.999Z</time></trkpt><trkpt lat="43.5929105028287" lon="11.361491445337302"><ele>529.25</ele><time>2026-04-11T22:01:25.999Z</time></trkpt><trkpt lat="43.59293091635488" lon="11.361274089553621"><ele>526.5</ele><time>2026-04-11T22:01:26.999Z</time></trkpt><trkpt lat="43.592926439883314" lon="11.361079139994082"><ele>523.75</ele><time>2026-04-11T22:01:27.999Z</time></trkpt><trkpt lat="43.59287531628529" lon="11.36090908123821"><ele>521.0</ele><time>2026-04-11T22:01:28.999Z</time></trkpt><trkpt lat="43.592784088202365" lon="11.360783564651355"><ele>521.0</ele><time>2026-04-11T22:01:29.999Z</time></trkpt><trkpt lat="43.59266045638175" lon="11.360708150179956"><ele>521.0</ele><time>2026-04-11T22:01:30.999Z</time></trkpt><trkpt lat="43.592515687321054" lon="11.360676083374022"><ele>521.0</ele><time>2026-04-11T22:01:31.999Z</time></trkpt><trkpt lat="43.59238980769758" lon="11.36059743063833"><ele>521.0</ele><time>2026-04-11T22:01:32.999Z</time></trkpt><trkpt lat="43.5923758170593" lon="11.360403868738636"><ele>516.6666666666666</ele><time>2026-04-11T22:01:33.999Z</time></trkpt><trkpt lat="43.59239463757921" lon="11.360216955778197"><ele>512.3333333333334</ele><time>2026-04-11T22:01:34.999Z</time></trkpt><trkpt lat="43.59242257222321" lon="11.360007031448276"><ele>508.0</ele><time>2026-04-11T22:01:35.999Z</time></trkpt><trkpt lat="43.59244006968252" lon="11.359772680326579"><ele>507.6666666666667</ele><time>2026-04-11T22:01:36.999Z</time></trkpt><trkpt lat="43.59247482056814" lon="11.35953178967684"><ele>507.33333333333337</ele><time>2026-04-11T22:01:37.999Z</time></trkpt><trkpt lat="43.59255232850884" lon="11.35932471255428"><ele>507.0</ele><time>2026-04-11T22:01:38.999Z</time></trkpt><trkpt lat="43.5926448313407" lon="11.35918114689765"><ele>507.0</ele><time>2026-04-11T22:01:39.999Z</time></trkpt><trkpt lat="43.59270962466984" lon="11.359045805325193"><ele>507.0</ele><time>2026-04-11T22:01:40.999Z</time></trkpt><trkpt lat="43.592760631516185" lon="11.358917240064205"><ele>507.0</ele><time>2026-04-11T22:01:41.999Z</time></trkpt><trkpt lat="43.59276472682298" lon="11.358760330543396"><ele>507.0</ele><time>2026-04-11T22:01:42.999Z</time></trkpt><trkpt lat="43.592698386448944" lon="11.358597790434338"><ele>505.66666666666663</ele><time>2026-04-11T22:01:43.999Z</time></trkpt><trkpt lat="43.59259697312927" lon="11.35844307663987"><ele>504.3333333333333</ele><time>2026-04-11T22:01:44.999Z</time></trkpt><trkpt lat="43.59250933944159" lon="11.358252626072002"><ele>503.0</ele><time>2026-04-11T22:01:45.999Z</time></trkpt><trkpt lat="43.59243992004353" lon="11.358036996304289"><ele>497.0</ele><time>2026-04-11T22:01:46.999Z</time></trkpt><trkpt lat="43.59239455307897" lon="11.357788917623973"><ele>491.0</ele><time>2026-04-11T22:01:47.999Z</time></trkpt><trkpt lat="43.592350589742864" lon="11.35752269248063"><ele>485.0</ele><time>2026-04-11T22:01:48.999Z</time></trkpt><trkpt lat="43.59230998600527" lon="11.35726068718802"><ele>479.66666666666663</ele><time>2026-04-11T22:01:49.999Z</time></trkpt><trkpt lat="43.592278586598695" lon="11.357028899548453"><ele>474.33333333333337</ele><time>2026-04-11T22:01:50.999Z</time></trkpt><trkpt lat="43.592250302004636" lon="11.356822687023215"><ele>469.0</ele><time>2026-04-11T22:01:51.999Z</time></trkpt><trkpt lat="43.592208673511294" lon="11.356629835898012"><ele>469.0</ele><time>2026-04-11T22:01:52.999Z</time></trkpt><trkpt lat="43.59214121927675" lon="11.35646609557324"><ele>469.0</ele><time>2026-04-11T22:01:53.999Z</time></trkpt><trkpt lat="43.59203507409633" lon="11.356340665883057"><ele>469.0</ele><time>2026-04-11T22:01:54.999Z</time></trkpt><trkpt lat="43.591886322676096" lon="11.356255003030231"><ele>469.0</ele><time>2026-04-11T22:01:55.999Z</time></trkpt><trkpt lat="43.59173502088758" lon="11.356157521664427"><ele>470.5</ele><time>2026-04-11T22:01:56.999Z</time></trkpt><trkpt lat="43.591625511204484" lon="11.356002270900325"><ele>472.0</ele><time>2026-04-11T22:01:57.999Z</time></trkpt><trkpt lat="43.591553595627495" lon="11.355842583737513"><ele>473.5</ele><time>2026-04-11T22:01:58.999Z</time></trkpt><trkpt lat="43.59147971694492" lon="11.355729566814517"><ele>475.0</ele><time>2026-04-11T22:01:59.998Z</time></trkpt><trkpt lat="43.591373139717554" lon="11.355688299212598"><ele>475.0</ele><time>2026-04-11T22:02:00.998Z</time></trkpt><trkpt lat="43.59123609516231" lon="11.355729649210911"><ele>475.0</ele><time>2026-04-11T22:02:01.998Z</time></trkpt><trkpt lat="43.59109412331987" lon="11.355773563560215"><ele>475.0</ele><time>2026-04-11T22:02:02.998Z</time></trkpt><trkpt lat="43.5909528849932" lon="11.355778163950584"><ele>475.0</ele><time>2026-04-11T22:02:03.998Z</time></trkpt><trkpt lat="43.590843829632746" lon="11.3557049759703"><ele>475.75</ele><time>2026-04-11T22:02:05Z</time></trkpt><trkpt lat="43.590759926462084" lon="11.355598494626216"><ele>476.5</ele><time>2026-04-11T22:02:06Z</time></trkpt><trkpt lat="43.590727631707466" lon="11.355433474117211"><ele>477.25</ele><time>2026-04-11T22:02:07Z</time></trkpt><trkpt lat="43.59075922051158" lon="11.355268994953882"><ele>478.0</ele><time>2026-04-11T22:02:08Z</time></trkpt><trkpt lat="43.590863840202694" lon="11.355147743339401"><ele>478.25</ele><time>2026-04-11T22:02:09Z</time></trkpt><trkpt lat="43.59097941951258" lon="11.355051589445736"><ele>478.5</ele><time>2026-04-11T22:02:10Z</time></trkpt><trkpt lat="43.591112089844714" lon="11.354973745661285"><ele>478.75</ele><time>2026-04-11T22:02:11Z</time></trkpt><trkpt lat="43.591261129054075" lon="11.3549097806245"><ele>479.0</ele><time>2026-04-11T22:02:12Z</time></trkpt><trkpt lat="43.591410589751014" lon="11.354837762042045"><ele>480.66666666666663</ele><time>2026-04-11T22:02:13Z</time></trkpt><trkpt lat="43.59155992421384" lon="11.35473704290405"><ele>482.33333333333337</ele><time>2026-04-11T22:02:14Z</time></trkpt><trkpt lat="43.59169961248186" lon="11.354590360041056"><ele>484.0</ele><time>2026-04-11T22:02:15Z</time></trkpt><trkpt lat="43.591832829041635" lon="11.354462993653485"><ele>484.0</ele><time>2026-04-11T22:02:16Z</time></trkpt><trkpt lat="43.59198583692689" lon="11.35435692975079"><ele>484.0</ele><time>2026-04-11T22:02:17Z</time></trkpt><trkpt lat="43.59215392071182" lon="11.354275119901803"><ele>484.0</ele><time>2026-04-11T22:02:18Z</time></trkpt><trkpt lat="43.592289691539904" lon="11.35424546048366"><ele>479.33333333333337</ele><time>2026-04-11T22:02:19Z</time></trkpt><trkpt lat="43.59239631537163" lon="11.354122993189172"><ele>474.66666666666663</ele><time>2026-04-11T22:02:20Z</time></trkpt><trkpt lat="43.592497534520675" lon="11.35393213095253"><ele>470.0</ele><time>2026-04-11T22:02:21Z</time></trkpt><trkpt lat="43.592623211310006" lon="11.353785810944801"><ele>470.0</ele><time>2026-04-11T22:02:22Z</time></trkpt><trkpt lat="43.5927398226999" lon="11.353618533572499"><ele>470.0</ele><time>2026-04-11T22:02:23Z</time></trkpt><trkpt lat="43.59284591857627" lon="11.353484590206257"><ele>470.0</ele><time>2026-04-11T22:02:24Z</time></trkpt><trkpt lat="43.59291994534583" lon="11.353327409861754"><ele>470.0</ele><time>2026-04-11T22:02:25Z</time></trkpt><trkpt lat="43.59295715729596" lon="11.353136911089404"><ele>468.0</ele><time>2026-04-11T22:02:26Z</time></trkpt><trkpt lat="43.59297527639918" lon="11.352921717751675"><ele>466.0</ele><time>2026-04-11T22:02:27Z</time></trkpt><trkpt lat="43.59303536704558" lon="11.352730015943946"><ele>464.0</ele><time>2026-04-11T22:02:28Z</time></trkpt><trkpt lat="43.59314392626866" lon="11.352570464702762"><ele>464.0</ele><time>2026-04-11T22:02:29Z</time></trkpt><trkpt lat="43.593255936557554" lon="11.352389297940089"><ele>464.0</ele><time>2026-04-11T22:02:30Z</time></trkpt><trkpt lat="43.59335583128424" lon="11.352193712459275"><ele>464.0</ele><time>2026-04-11T22:02:31Z</time></trkpt><trkpt lat="43.59345056941242" lon="11.352002976369354"><ele>467.0</ele><time>2026-04-11T22:02:31.999Z</time></trkpt><trkpt lat="43.593533260504046" lon="11.35177630502986"><ele>470.0</ele><time>2026-04-11T22:02:32.999Z</time></trkpt><trkpt lat="43.59360377759124" lon="11.351543763087069"><ele>473.0</ele><time>2026-04-11T22:02:33.999Z</time></trkpt><trkpt lat="43.593655300868605" lon="11.351314145705775"><ele>473.0</ele><time>2026-04-11T22:02:34.999Z</time></trkpt><trkpt lat="43.59368123528354" lon="11.351090308281519"><ele>473.0</ele><time>2026-04-11T22:02:35.999Z</time></trkpt><trkpt lat="43.59366881135589" lon="11.35087480501462"><ele>473.0</ele><time>2026-04-11T22:02:36.999Z</time></trkpt><trkpt lat="43.59362772473984" lon="11.350669531521726"><ele>470.3333333333333</ele><time>2026-04-11T22:02:37.999Z</time></trkpt><trkpt lat="43.59354359959043" lon="11.350478183405267"><ele>467.66666666666663</ele><time>2026-04-11T22:02:38.999Z</time></trkpt><trkpt lat="43.593438400133785" lon="11.350289833222075"><ele>465.0</ele><time>2026-04-11T22:02:39.999Z</time></trkpt><trkpt lat="43.59338847479671" lon="11.350065213159672"><ele>465.0</ele><time>2026-04-11T22:02:40.999Z</time></trkpt><trkpt lat="43.593356991084946" lon="11.349826217305468"><ele>465.0</ele><time>2026-04-11T22:02:41.999Z</time></trkpt><trkpt lat="43.59336800674202" lon="11.349605465010155"><ele>465.0</ele><time>2026-04-11T22:02:42.999Z</time></trkpt><trkpt lat="43.5934265945911" lon="11.349420926191524"><ele>462.75</ele><time>2026-04-11T22:02:43.999Z</time></trkpt><trkpt lat="43.59347425305081" lon="11.349228624642246"><ele>460.5</ele><time>2026-04-11T22:02:44.999Z</time></trkpt><trkpt lat="43.593497755856006" lon="11.349051841487205"><ele>458.25</ele><time>2026-04-11T22:02:45.999Z</time></trkpt><trkpt lat="43.59347854673801" lon="11.348874754242521"><ele>456.0</ele><time>2026-04-11T22:02:46.999Z</time></trkpt><trkpt lat="43.593408006332666" lon="11.34870196100801"><ele>452.0</ele><time>2026-04-11T22:02:47.999Z</time></trkpt><trkpt lat="43.59332168766582" lon="11.348526447514299"><ele>448.0</ele><time>2026-04-11T22:02:48.999Z</time></trkpt><trkpt lat="43.593252430929546" lon="11.34833641609344"><ele>444.0</ele><time>2026-04-11T22:02:49.999Z</time></trkpt><trkpt lat="43.5931813292682" lon="11.348136493149957"><ele>442.5</ele><time>2026-04-11T22:02:50.999Z</time></trkpt><trkpt lat="43.59314326764923" lon="11.347948990681816"><ele>441.0</ele><time>2026-04-11T22:02:51.999Z</time></trkpt><trkpt lat="43.59316835410155" lon="11.347759382609"><ele>439.5</ele><time>2026-04-11T22:02:52.999Z</time></trkpt><trkpt lat="43.59320309165396" lon="11.34756435594882"><ele>438.0</ele><time>2026-04-11T22:02:53.999Z</time></trkpt><trkpt lat="43.59322333006191" lon="11.347365403726197"><ele>434.5</ele><time>2026-04-11T22:02:54.999Z</time></trkpt><trkpt lat="43.59322238505664" lon="11.34719672872928"><ele>431.0</ele><time>2026-04-11T22:02:55.999Z</time></trkpt><trkpt lat="43.593170342172954" lon="11.347033432408729"><ele>427.5</ele><time>2026-04-11T22:02:56.999Z</time></trkpt><trkpt lat="43.593069232579076" lon="11.34688943790433"><ele>424.0</ele><time>2026-04-11T22:02:57.999Z</time></trkpt><trkpt lat="43.59294187003215" lon="11.346759475340368"><ele>429.6666666666667</ele><time>2026-04-11T22:02:58.999Z</time></trkpt><trkpt lat="43.59281127646161" lon="11.346639067381036"><ele>435.33333333333337</ele><time>2026-04-11T22:02:59.999Z</time></trkpt><trkpt lat="43.59268032569708" lon="11.346508696732336"><ele>441.0</ele><time>2026-04-11T22:03:00.999Z</time></trkpt><trkpt lat="43.5925439822261" lon="11.34638555907741"><ele>434.33333333333337</ele><time>2026-04-11T22:03:01.999Z</time></trkpt><trkpt lat="43.59238988753867" lon="11.346281678695703"><ele>427.6666666666667</ele><time>2026-04-11T22:03:02.999Z</time></trkpt><trkpt lat="43.59222971246592" lon="11.346231918002871"><ele>421.0</ele><time>2026-04-11T22:03:03.999Z</time></trkpt><trkpt lat="43.592061293359436" lon="11.346217062357914"><ele>423.0</ele><time>2026-04-11T22:03:04.999Z</time></trkpt><trkpt lat="43.59188507409254" lon="11.346253244115896"><ele>425.0</ele><time>2026-04-11T22:03:05.999Z</time></trkpt><trkpt lat="43.59170009613547" lon="11.346278425422282"><ele>427.0</ele><time>2026-04-11T22:03:06.999Z</time></trkpt><trkpt lat="43.59151899707991" lon="11.346283540328242"><ele>427.0</ele><time>2026-04-11T22:03:07.999Z</time></trkpt><trkpt lat="43.591370234490356" lon="11.346227385619764"><ele>427.0</ele><time>2026-04-11T22:03:08.999Z</time></trkpt><trkpt lat="43.59125831338762" lon="11.346108949344135"><ele>427.0</ele><time>2026-04-11T22:03:09.999Z</time></trkpt><trkpt lat="43.591175310490904" lon="11.345945052919053"><ele>427.0</ele><time>2026-04-11T22:03:10.999Z</time></trkpt><trkpt lat="43.59114685052005" lon="11.345739354712666"><ele>428.33333333333337</ele><time>2026-04-11T22:03:11.999Z</time></trkpt><trkpt lat="43.59112353423711" lon="11.345501516777366"><ele>429.66666666666663</ele><time>2026-04-11T22:03:12.999Z</time></trkpt><trkpt lat="43.59112301736504" lon="11.345253626475953"><ele>431.0</ele><time>2026-04-11T22:03:13.999Z</time></trkpt><trkpt lat="43.59117024748678" lon="11.345003004659883"><ele>428.3333333333333</ele><time>2026-04-11T22:03:14.999Z</time></trkpt><trkpt lat="43.59125388444433" lon="11.344758121237616"><ele>425.66666666666663</ele><time>2026-04-11T22:03:15.999Z</time></trkpt><trkpt lat="43.591331128792405" lon="11.3444908637349"><ele>423.0</ele><time>2026-04-11T22:03:16.999Z</time></trkpt><trkpt lat="43.59144338296666" lon="11.344233851578378"><ele>423.0</ele><time>2026-04-11T22:03:17.999Z</time></trkpt><trkpt lat="43.59152196875261" lon="11.343979802679828"><ele>423.0</ele><time>2026-04-11T22:03:18.999Z</time></trkpt><trkpt lat="43.591616322081514" lon="11.343754985840075"><ele>423.0</ele><time>2026-04-11T22:03:19.999Z</time></trkpt><trkpt lat="43.591685509574646" lon="11.343545963217741"><ele>422.66666666666663</ele><time>2026-04-11T22:03:20.999Z</time></trkpt><trkpt lat="43.591822668594645" lon="11.343417336001123"><ele>422.3333333333333</ele><time>2026-04-11T22:03:21.999Z</time></trkpt><trkpt lat="43.59196146430484" lon="11.343315796343472"><ele>422.0</ele><time>2026-04-11T22:03:22.999Z</time></trkpt><trkpt lat="43.59211074233503" lon="11.3432294860365"><ele>422.25</ele><time>2026-04-11T22:03:23.999Z</time></trkpt><trkpt lat="43.59223793956442" lon="11.343128837328752"><ele>422.5</ele><time>2026-04-11T22:03:24.999Z</time></trkpt><trkpt lat="43.592347000025434" lon="11.343035305384387"><ele>422.75</ele><time>2026-04-11T22:03:25.999Z</time></trkpt><trkpt lat="43.59241797891009" lon="11.342895699327006"><ele>423.0</ele><time>2026-04-11T22:03:26.999Z</time></trkpt><trkpt lat="43.59243318061463" lon="11.342728119094959"><ele>423.0</ele><time>2026-04-11T22:03:27.999Z</time></trkpt><trkpt lat="43.59246309196189" lon="11.342565898035298"><ele>423.0</ele><time>2026-04-11T22:03:28.999Z</time></trkpt><trkpt lat="43.592522561085005" lon="11.342424694501949"><ele>423.0</ele><time>2026-04-11T22:03:29.999Z</time></trkpt><trkpt lat="43.592663383565665" lon="11.342387363617659"><ele>423.0</ele><time>2026-04-11T22:03:30.999Z</time></trkpt><trkpt lat="43.5928132176919" lon="11.342386438815872"><ele>421.0</ele><time>2026-04-11T22:03:31.999Z</time></trkpt><trkpt lat="43.59294010219501" lon="11.342301802098383"><ele>419.0</ele><time>2026-04-11T22:03:32.999Z</time></trkpt><trkpt lat="43.59306740285022" lon="11.342242293885906"><ele>417.0</ele><time>2026-04-11T22:03:33.999Z</time></trkpt><trkpt lat="43.593190365282" lon="11.342082203665498"><ele>415.0</ele><time>2026-04-11T22:03:34.999Z</time></trkpt><trkpt lat="43.59331527822347" lon="11.341983512539699"><ele>415.0</ele><time>2026-04-11T22:03:35.999Z</time></trkpt><trkpt lat="43.59343008456547" lon="11.341889497795547"><ele>415.0</ele><time>2026-04-11T22:03:36.999Z</time></trkpt><trkpt lat="43.593520227473775" lon="11.341806048292593"><ele>415.0</ele><time>2026-04-11T22:03:37.999Z</time></trkpt><trkpt lat="43.593588008233766" lon="11.341720271287278"><ele>415.0</ele><time>2026-04-11T22:03:38.999Z</time></trkpt><trkpt lat="43.59366627319341" lon="11.34175631384988"><ele>415.0</ele><time>2026-04-11T22:03:39.999Z</time></trkpt><trkpt lat="43.593732549582526" lon="11.341767935949987"><ele>414.2</ele><time>2026-04-11T22:03:40.999Z</time></trkpt><trkpt lat="43.59381674011334" lon="11.341835525832758"><ele>413.4</ele><time>2026-04-11T22:03:42.999Z</time></trkpt><trkpt lat="43.59391190037012" lon="11.341907989875718"><ele>412.6</ele><time>2026-04-11T22:03:44.999Z</time></trkpt><trkpt lat="43.593979894881656" lon="11.34189101690587"><ele>411.8</ele><time>2026-04-11T22:03:45.999Z</time></trkpt><trkpt lat="43.59404450959732" lon="11.341823404491631"><ele>411.0</ele><time>2026-04-11T22:03:46.999Z</time></trkpt><trkpt lat="43.59414114850356" lon="11.34179465581845"><ele>411.0</ele><time>2026-04-11T22:03:48.999Z</time></trkpt><trkpt lat="43.59422045996347" lon="11.341968985134116"><ele>411.0</ele><time>2026-04-11T22:03:50.999Z</time></trkpt><trkpt lat="43.59427703064993" lon="11.342083867374313"><ele>411.0</ele><time>2026-04-11T22:03:51.999Z</time></trkpt><trkpt lat="43.59432789238917" lon="11.342176714674872"><ele>411.0</ele><time>2026-04-11T22:03:52.999Z</time></trkpt><trkpt lat="43.594380536334285" lon="11.342259993951831"><ele>411.0</ele><time>2026-04-11T22:03:53.999Z</time></trkpt><trkpt lat="43.59443562651624" lon="11.342333567572643"><ele>409.5</ele><time>2026-04-11T22:03:54.999Z</time></trkpt><trkpt lat="43.594493922728965" lon="11.342400295760736"><ele>408.0</ele><time>2026-04-11T22:03:55.999Z</time></trkpt><trkpt lat="43.5945587425804" lon="11.34243681597554"><ele>406.5</ele><time>2026-04-11T22:03:56.999Z</time></trkpt><trkpt lat="43.59461450071591" lon="11.34251150201913"><ele>405.0</ele><time>2026-04-11T22:03:57.999Z</time></trkpt><trkpt lat="43.59466245069559" lon="11.342599089706017"><ele>403.5</ele><time>2026-04-11T22:03:58.999Z</time></trkpt><trkpt lat="43.5947156448825" lon="11.34271213605322"><ele>402.0</ele><time>2026-04-11T22:03:59.999Z</time></trkpt><trkpt lat="43.59475262699101" lon="11.342835953895833"><ele>399.6</ele><time>2026-04-11T22:04:00.999Z</time></trkpt><trkpt lat="43.5947860211827" lon="11.34296627172441"><ele>397.20000000000005</ele><time>2026-04-11T22:04:01.999Z</time></trkpt><trkpt lat="43.59481831449101" lon="11.34309605421983"><ele>394.8</ele><time>2026-04-11T22:04:02.999Z</time></trkpt><trkpt lat="43.594846126900876" lon="11.34322347414801"><ele>392.4</ele><time>2026-04-11T22:04:03.999Z</time></trkpt><trkpt lat="43.59488323480819" lon="11.343334038545718"><ele>390.0</ele><time>2026-04-11T22:04:04.998Z</time></trkpt><trkpt lat="43.594938888422405" lon="11.343424541316384"><ele>389.0</ele><time>2026-04-11T22:04:05.998Z</time></trkpt><trkpt lat="43.5950052004851" lon="11.343504428324747"><ele>388.0</ele><time>2026-04-11T22:04:06.998Z</time></trkpt><trkpt lat="43.59507207915998" lon="11.343575373705548"><ele>387.0</ele><time>2026-04-11T22:04:07.998Z</time></trkpt><trkpt lat="43.595130762862404" lon="11.343643606183138"><ele>386.0</ele><time>2026-04-11T22:04:08.998Z</time></trkpt><trkpt lat="43.59519214198687" lon="11.343720797183408"><ele>385.0</ele><time>2026-04-11T22:04:09.998Z</time></trkpt><trkpt lat="43.59524858516995" lon="11.343803967951878"><ele>384.0</ele><time>2026-04-11T22:04:11Z</time></trkpt><trkpt lat="43.59530538702774" lon="11.343899628848913"><ele>380.5</ele><time>2026-04-11T22:04:12Z</time></trkpt><trkpt lat="43.595360685877836" lon="11.34399492851909"><ele>377.0</ele><time>2026-04-11T22:04:13Z</time></trkpt><trkpt lat="43.595405746623506" lon="11.344081961610314"><ele>373.5</ele><time>2026-04-11T22:04:14Z</time></trkpt><trkpt lat="43.59545643481071" lon="11.344165830931797"><ele>370.0</ele><time>2026-04-11T22:04:15Z</time></trkpt><trkpt lat="43.5955018347741" lon="11.344246058511567"><ele>366.5</ele><time>2026-04-11T22:04:16Z</time></trkpt><trkpt lat="43.59554111603162" lon="11.344324585226296"><ele>363.0</ele><time>2026-04-11T22:04:17Z</time></trkpt><trkpt lat="43.59558187032095" lon="11.344400303781642"><ele>363.0</ele><time>2026-04-11T22:04:18Z</time></trkpt><trkpt lat="43.5956406479676" lon="11.344464111240274"><ele>363.0</ele><time>2026-04-11T22:04:19Z</time></trkpt><trkpt lat="43.59571496947938" lon="11.344554468441848"><ele>363.0</ele><time>2026-04-11T22:04:21Z</time></trkpt><trkpt lat="43.59564335085243" lon="11.344483219428469"><ele>363.0</ele><time>2026-04-11T22:04:27Z</time></trkpt><trkpt lat="43.59564236770861" lon="11.344389003829757"><ele>363.0</ele><time>2026-04-11T22:04:28Z</time></trkpt><trkpt lat="43.59561589385839" lon="11.344294544166607"><ele>363.0</ele><time>2026-04-11T22:04:30Z</time></trkpt><trkpt lat="43.59556097456369" lon="11.344204550257459"><ele>362.99999999999994</ele><time>2026-04-11T22:04:32.999Z</time></trkpt><trkpt lat="43.595616671743926" lon="11.344263156186308"><ele>363.0</ele><time>2026-04-11T22:06:55.999Z</time></trkpt><trkpt lat="43.59564688035755" lon="11.344350627943744"><ele>363.0</ele><time>2026-04-11T22:07:04.999Z</time></trkpt><trkpt lat="43.5956834846113" lon="11.344425274851785"><ele>363.0</ele><time>2026-04-11T22:07:11.999Z</time></trkpt><trkpt lat="43.59571788449625" lon="11.344500855366196"><ele>363.0</ele><time>2026-04-11T22:07:21.999Z</time></trkpt><trkpt lat="43.59575002052762" lon="11.34458223444915"><ele>362.99999999999994</ele><time>2026-04-11T22:07:33.999Z</time></trkpt><trkpt lat="43.595798775551884" lon="11.344639117691626"><ele>363.0</ele><time>2026-04-11T22:07:40.999Z</time></trkpt><trkpt lat="43.59584732137124" lon="11.344705531498926"><ele>363.57142857142856</ele><time>2026-04-11T22:07:49.999Z</time></trkpt><trkpt lat="43.59590971940766" lon="11.34472515048631"><ele>364.1428571428571</ele><time>2026-04-11T22:07:59.999Z</time></trkpt><trkpt lat="43.5959760945727" lon="11.344730905418322"><ele>364.71428571428567</ele><time>2026-04-11T22:08:08.999Z</time></trkpt><trkpt lat="43.59602501951835" lon="11.344785966463725"><ele>365.2857142857143</ele><time>2026-04-11T22:08:17.998Z</time></trkpt><trkpt lat="43.59608024427778" lon="11.34483648530858"><ele>365.8571428571429</ele><time>2026-04-11T22:08:26Z</time></trkpt><trkpt lat="43.596133449992145" lon="11.344886793786586"><ele>366.4285714285714</ele><time>2026-04-11T22:08:35Z</time></trkpt><trkpt lat="43.59613277452706" lon="11.344999895259527"><ele>367.0</ele><time>2026-04-11T22:09:09.999Z</time></trkpt><trkpt lat="43.59606245496627" lon="11.345003863023361"><ele>367.0</ele><time>2026-04-11T22:11:22.999Z</time></trkpt></trkseg></trk></gpx>